Wetterdaten: Sonntag, 17.06.2018
Datum Zeit Temp. Aussen Temp. o. S. +5cm Feuchte Auss Luftdruck Regen Sonnenschein Regendauer Solar Windben Empfang
17.06.2018 00:00 16,7 C 15,0 C 15,0 C 83 % 1013,6 hPa 0,0 l/m 0 min 0 min 0 W/m 0,0 km/h (0 Bft) 97,87 %
17.06.2018 00:02 16,7 C 15,0 C 15,0 C 83 % 1013,7 hPa 0,0 l/m 0 min 0 min 0 W/m 0,0 km/h (0 Bft) 97,67 %
17.06.2018 00:04 16,6 C 15,0 C 15,0 C 83 % 1013,6 hPa 0,0 l/m 0 min 0 min 0 W/m 0,0 km/h (0 Bft) 98,00 %
17.06.2018 00:08 16,6 C 15,0 C 14,4 C 84 % 1013,7 hPa 0,0 l/m 0 min 0 min 0 W/m 0,0 km/h (0 Bft) 97,53 %
17.06.2018 00:10 16,5 C 15,0 C 14,4 C 84 % 1013,7 hPa 0,0 l/m 0 min 0 min 0 W/m 0,0 km/h (0 Bft) 97,96 %
17.06.2018 00:12 16,5 C 15,0 C 14,4 C 84 % 1013,7 hPa 0,0 l/m 0 min 0 min 0 W/m 0,0 km/h (0 Bft) 97,87 %
17.06.2018 00:14 16,4 C 15,0 C 14,4 C 84 % 1013,7 hPa 0,0 l/m 0 min 0 min 0 W/m 0,0 km/h (0 Bft) 100,00 %
17.06.2018 00:16 16,4 C 15,0 C 14,4 C 84 % 1013,7 hPa 0,0 l/m 0 min 0 min 0 W/m 0,0 km/h (0 Bft) 100,00 %
17.06.2018 00:18 16,4 C 15,0 C 14,4 C 84 % 1013,7 hPa 0,0 l/m 0 min 0 min 0 W/m 0,0 km/h (0 Bft) 97,83 %
17.06.2018 00:20 16,3 C 15,0 C 14,4 C 84 % 1013,7 hPa 0,0 l/m 0 min 0 min 0 W/m 0,0 km/h (0 Bft) 100,00 %
17.06.2018 00:22 16,3 C 15,0 C 14,4 C 84 % 1013,7 hPa 0,0 l/m 0 min 0 min 0 W/m 0,0 km/h (0 Bft) 100,00 %
17.06.2018 00:24 16,3 C 14,4 C 14,4 C 84 % 1013,7 hPa 0,0 l/m 0 min 0 min 0 W/m 0,0 km/h (0 Bft) 100,00 %
17.06.2018 00:26 16,2 C 14,4 C 14,4 C 84 % 1013,7 hPa 0,0 l/m 0 min 0 min 0 W/m 0,0 km/h (0 Bft) 100,00 %
17.06.2018 00:28 16,2 C 14,4 C 14,4 C 85 % 1013,7 hPa 0,0 l/m 0 min 0 min 0 W/m 0,0 km/h (0 Bft) 97,87 %
17.06.2018 00:30 16,2 C 14,4 C 14,4 C 85 % 1013,6 hPa 0,0 l/m 0 min 0 min 0 W/m 0,0 km/h (0 Bft) 100,00 %
17.06.2018 00:32 16,1 C 14,4 C 14,4 C 85 % 1013,7 hPa 0,0 l/m 0 min 0 min 0 W/m 0,0 km/h (0 Bft) 97,87 %
17.06.2018 00:34 16,1 C 14,4 C 13,9 C 85 % 1013,7 hPa 0,0 l/m 0 min 0 min 0 W/m 0,0 km/h (0 Bft) 97,87 %
17.06.2018 00:36 16,1 C 14,4 C 13,9 C 85 % 1013,7 hPa 0,0 l/m 0 min 0 min 0 W/m 0,0 km/h (0 Bft) 97,92 %
17.06.2018 00:38 16,0 C 14,4 C 13,9 C 85 % 1013,7 hPa 0,0 l/m 0 min 0 min 0 W/m 0,0 km/h (0 Bft) 97,87 %
17.06.2018 00:40 16,0 C 14,4 C 13,9 C 85 % 1013,7 hPa 0,0 l/m 0 min 0 min 0 W/m 0,0 km/h (0 Bft) 97,87 %
17.06.2018 00:42 15,9 C 14,4 C 13,9 C 85 % 1013,7 hPa 0,0 l/m 0 min 0 min 0 W/m 0,0 km/h (0 Bft) 95,65 %
17.06.2018 00:44 15,9 C 13,9 C 13,9 C 85 % 1013,6 hPa 0,0 l/m 0 min 0 min 0 W/m 0,0 km/h (0 Bft) 95,74 %
17.06.2018 00:46 15,8 C 13,9 C 13,9 C 86 % 1013,6 hPa 0,0 l/m 0 min 0 min 0 W/m 0,0 km/h (0 Bft) 95,74 %
17.06.2018 00:48 15,8 C 13,9 C 13,9 C 86 % 1013,7 hPa 0,0 l/m 0 min 0 min 0 W/m 0,0 km/h (0 Bft) 97,87 %
17.06.2018 00:50 15,8 C 14,4 C 13,9 C 86 % 1013,7 hPa 0,0 l/m 0 min 0 min 0 W/m 0,0 km/h (0 Bft) 93,62 %
17.06.2018 00:52 15,7 C 14,4 C 13,9 C 86 % 1013,7 hPa 0,0 l/m 0 min 0 min 0 W/m 0,0 km/h (0 Bft) 97,87 %
17.06.2018 00:54 15,7 C 14,4 C 13,9 C 86 % 1013,7 hPa 0,0 l/m 0 min 0 min 0 W/m 0,0 km/h (0 Bft) 100,00 %
17.06.2018 00:56 15,7 C 14,4 C 13,9 C 86 % 1013,7 hPa 0,0 l/m 0 min 0 min 0 W/m 0,0 km/h (0 Bft) 97,83 %
17.06.2018 00:58 15,6 C 14,4 C 13,9 C 86 % 1013,6 hPa 0,0 l/m 0 min 0 min 0 W/m 0,0 km/h (0 Bft) 95,74 %
17.06.2018 01:00 15,6 C 14,4 C 13,9 C 86 % 1013,6 hPa 0,0 l/m 0 min 0 min 0 W/m 2,3 km/h (1 Bft) 93,62 %
17.06.2018 01:02 15,6 C 14,4 C 13,9 C 86 % 1013,6 hPa 0,0 l/m 0 min 0 min 0 W/m 0,0 km/h (0 Bft) 95,74 %
17.06.2018 01:04 15,5 C 14,4 C 13,9 C 86 % 1013,7 hPa 0,0 l/m 0 min 0 min 0 W/m 0,0 km/h (0 Bft) 97,87 %
17.06.2018 01:08 15,4 C 14,4 C 13,9 C 87 % 1013,7 hPa 0,0 l/m 0 min 0 min 0 W/m 0,0 km/h (0 Bft) 96,77 %
17.06.2018 01:10 15,4 C 14,4 C 13,9 C 87 % 1013,7 hPa 0,0 l/m 0 min 0 min 0 W/m 2,3 km/h (1 Bft) 95,74 %
17.06.2018 01:12 15,4 C 14,4 C 14,4 C 87 % 1013,7 hPa 0,0 l/m 0 min 0 min 0 W/m 4,5 km/h (1 Bft) 95,74 %
17.06.2018 01:14 15,3 C 14,4 C 14,4 C 87 % 1013,7 hPa 0,0 l/m 0 min 0 min 0 W/m 2,3 km/h (1 Bft) 97,87 %
17.06.2018 01:16 15,3 C 14,4 C 14,4 C 87 % 1013,7 hPa 0,0 l/m 0 min 0 min 0 W/m 0,0 km/h (0 Bft) 95,74 %
17.06.2018 01:18 15,3 C 14,4 C 15,0 C 87 % 1013,7 hPa 0,0 l/m 0 min 0 min 0 W/m 6,8 km/h (2 Bft) 95,74 %
17.06.2018 01:20 15,2 C 15,0 C 15,0 C 87 % 1013,8 hPa 0,0 l/m 0 min 0 min 0 W/m 2,3 km/h (1 Bft) 93,48 %
17.06.2018 01:22 15,2 C 15,0 C 15,0 C 87 % 1013,7 hPa 0,0 l/m 0 min 0 min 0 W/m 2,3 km/h (1 Bft) 95,74 %
17.06.2018 01:24 15,2 C 15,0 C 15,0 C 87 % 1013,7 hPa 0,0 l/m 0 min 0 min 0 W/m 0,0 km/h (0 Bft) 95,83 %
17.06.2018 01:26 15,2 C 15,0 C 15,0 C 87 % 1013,8 hPa 0,0 l/m 0 min 0 min 0 W/m 2,3 km/h (1 Bft) 93,62 %
17.06.2018 01:28 15,2 C 15,0 C 15,0 C 87 % 1013,9 hPa 0,0 l/m 0 min 0 min 0 W/m 2,3 km/h (1 Bft) 93,62 %
17.06.2018 01:30 15,2 C 15,0 C 15,0 C 86 % 1013,8 hPa 0,0 l/m 0 min 0 min 0 W/m 2,3 km/h (1 Bft) 95,65 %
17.06.2018 01:32 15,1 C 15,0 C 15,0 C 86 % 1013,8 hPa 0,0 l/m 0 min 0 min 0 W/m 4,5 km/h (1 Bft) 93,62 %
17.06.2018 01:34 15,1 C 15,0 C 15,0 C 86 % 1013,9 hPa 0,0 l/m 0 min 0 min 0 W/m 0,0 km/h (0 Bft) 95,74 %
17.06.2018 01:36 15,1 C 15,0 C 15,0 C 85 % 1013,8 hPa 0,0 l/m 0 min 0 min 0 W/m 2,3 km/h (1 Bft) 95,74 %
17.06.2018 01:38 15,1 C 15,0 C 15,0 C 85 % 1013,8 hPa 0,0 l/m 0 min 0 min 0 W/m 2,3 km/h (1 Bft) 95,74 %
17.06.2018 01:40 15,2 C 15,0 C 15,0 C 85 % 1013,9 hPa 0,0 l/m 0 min 0 min 0 W/m 0,0 km/h (0 Bft) 95,74 %
17.06.2018 01:42 15,2 C 15,0 C 15,0 C 84 % 1013,9 hPa 0,0 l/m 0 min 0 min 0 W/m 6,8 km/h (2 Bft) 95,65 %
17.06.2018 01:44 15,2 C 15,0 C 15,0 C 84 % 1013,9 hPa 0,0 l/m 0 min 0 min 0 W/m 0,0 km/h (0 Bft) 93,75 %
17.06.2018 01:46 15,2 C 15,0 C 15,0 C 84 % 1014,0 hPa 0,0 l/m 0 min 0 min 0 W/m 2,3 km/h (1 Bft) 95,83 %
17.06.2018 01:48 15,2 C 15,0 C 15,0 C 84 % 1014,0 hPa 0,0 l/m 0 min 0 min 0 W/m 0,0 km/h (0 Bft) 95,74 %
17.06.2018 01:50 15,2 C 15,0 C 15,0 C 83 % 1013,9 hPa 0,0 l/m 0 min 0 min 0 W/m 4,5 km/h (1 Bft) 95,74 %
17.06.2018 01:52 15,2 C 15,0 C 15,0 C 83 % 1013,9 hPa 0,0 l/m 0 min 0 min 0 W/m 2,3 km/h (1 Bft) 97,87 %
17.06.2018 01:54 15,2 C 15,0 C 15,0 C 83 % 1013,9 hPa 0,0 l/m 0 min 0 min 0 W/m 0,0 km/h (0 Bft) 97,83 %
17.06.2018 01:56 15,3 C 14,4 C 15,0 C 83 % 1014,0 hPa 0,0 l/m 0 min 0 min 0 W/m 0,0 km/h (0 Bft) 95,74 %
17.06.2018 01:58 15,3 C 14,4 C 15,0 C 83 % 1013,9 hPa 0,0 l/m 0 min 0 min 0 W/m 0,0 km/h (0 Bft) 100,00 %
17.06.2018 02:00 15,3 C 14,4 C 14,4 C 83 % 1014,0 hPa 0,0 l/m 0 min 0 min 0 W/m 0,0 km/h (0 Bft) 100,00 %
17.06.2018 02:02 15,3 C 14,4 C 14,4 C 83 % 1014,0 hPa 0,0 l/m 0 min 0 min 0 W/m 2,3 km/h (1 Bft) 97,87 %
17.06.2018 02:04 15,3 C 14,4 C 14,4 C 83 % 1014,0 hPa 0,0 l/m 0 min 0 min 0 W/m 0,0 km/h (0 Bft) 100,00 %
17.06.2018 02:06 15,3 C 14,4 C 14,4 C 83 % 1014,0 hPa 0,0 l/m 0 min 0 min 0 W/m 0,0 km/h (0 Bft) 97,87 %
17.06.2018 02:08 15,3 C 14,4 C 14,4 C 83 % 1014,1 hPa 0,0 l/m 0 min 0 min 0 W/m 0,0 km/h (0 Bft) 97,87 %
17.06.2018 02:10 15,3 C 14,4 C 14,4 C 83 % 1014,1 hPa 0,0 l/m 0 min 0 min 0 W/m 0,0 km/h (0 Bft) 100,00 %
17.06.2018 02:12 15,3 C 14,4 C 14,4 C 84 % 1014,0 hPa 0,0 l/m 0 min 0 min 0 W/m 2,3 km/h (1 Bft) 97,87 %
17.06.2018 02:14 15,3 C 14,4 C 14,4 C 84 % 1014,0 hPa 0,0 l/m 0 min 0 min 0 W/m 0,0 km/h (0 Bft) 100,00 %
17.06.2018 02:16 15,3 C 14,4 C 14,4 C 85 % 1014,1 hPa 0,0 l/m 0 min 0 min 0 W/m 0,0 km/h (0 Bft) 97,83 %
17.06.2018 02:18 15,3 C 14,4 C 14,4 C 85 % 1014,0 hPa 0,0 l/m 0 min 0 min 0 W/m 0,0 km/h (0 Bft) 100,00 %
17.06.2018 02:20 15,3 C 14,4 C 14,4 C 85 % 1014,0 hPa 0,0 l/m 0 min 0 min 0 W/m 2,3 km/h (1 Bft) 100,00 %
17.06.2018 02:22 15,3 C 14,4 C 14,4 C 85 % 1013,9 hPa 0,0 l/m 0 min 0 min 0 W/m 0,0 km/h (0 Bft) 100,00 %
17.06.2018 02:24 15,2 C 14,4 C 14,4 C 85 % 1013,9 hPa 0,0 l/m 0 min 0 min 0 W/m 0,0 km/h (0 Bft) 100,00 %
17.06.2018 02:26 15,2 C 14,4 C 14,4 C 84 % 1014,0 hPa 0,0 l/m 0 min 0 min 0 W/m 0,0 km/h (0 Bft) 100,00 %
17.06.2018 02:28 15,2 C 14,4 C 14,4 C 84 % 1014,0 hPa 0,0 l/m 0 min 0 min 0 W/m 0,0 km/h (0 Bft) 100,00 %
17.06.2018 02:30 15,2 C 14,4 C 14,4 C 84 % 1014,0 hPa 0,0 l/m 0 min 0 min 0 W/m 0,0 km/h (0 Bft) 97,87 %
17.06.2018 02:32 15,2 C 14,4 C 14,4 C 84 % 1014,0 hPa 0,0 l/m 0 min 0 min 0 W/m 0,0 km/h (0 Bft) 97,87 %
17.06.2018 02:34 15,1 C 14,4 C 14,4 C 84 % 1014,0 hPa 0,0 l/m 0 min 0 min 0 W/m 2,3 km/h (1 Bft) 97,87 %
17.06.2018 02:36 15,1 C 14,4 C 14,4 C 83 % 1014,0 hPa 0,0 l/m 0 min 0 min 0 W/m 0,0 km/h (0 Bft) 95,74 %
17.06.2018 02:38 15,1 C 14,4 C 13,9 C 83 % 1014,0 hPa 0,0 l/m 0 min 0 min 0 W/m 0,0 km/h (0 Bft) 97,87 %
17.06.2018 02:40 15,0 C 14,4 C 13,9 C 83 % 1014,0 hPa 0,0 l/m 0 min 0 min 0 W/m 0,0 km/h (0 Bft) 97,83 %
17.06.2018 02:42 15,0 C 13,9 C 13,9 C 83 % 1014,0 hPa 0,0 l/m 0 min 0 min 0 W/m 0,0 km/h (0 Bft) 97,87 %
17.06.2018 02:44 15,0 C 13,9 C 13,9 C 83 % 1014,0 hPa 0,0 l/m 0 min 0 min 0 W/m 0,0 km/h (0 Bft) 97,87 %
17.06.2018 02:46 14,9 C 13,9 C 13,9 C 83 % 1014,0 hPa 0,0 l/m 0 min 0 min 0 W/m 0,0 km/h (0 Bft) 95,74 %
17.06.2018 02:48 14,9 C 13,9 C 13,9 C 83 % 1014,1 hPa 0,0 l/m 0 min 0 min 0 W/m 0,0 km/h (0 Bft) 97,87 %
17.06.2018 02:50 14,9 C 13,9 C 13,9 C 83 % 1014,1 hPa 0,0 l/m 0 min 0 min 0 W/m 2,3 km/h (1 Bft) 97,87 %
17.06.2018 02:52 14,9 C 13,9 C 13,9 C 83 % 1014,2 hPa 0,0 l/m 0 min 0 min 0 W/m 0,0 km/h (0 Bft) 97,87 %
17.06.2018 02:54 14,9 C 13,9 C 13,9 C 83 % 1014,1 hPa 0,0 l/m 0 min 0 min 0 W/m 0,0 km/h (0 Bft) 93,62 %
17.06.2018 02:56 14,8 C 13,9 C 13,9 C 83 % 1014,2 hPa 0,0 l/m 0 min 0 min 0 W/m 2,3 km/h (1 Bft) 97,87 %
17.06.2018 02:58 14,8 C 13,9 C 13,9 C 83 % 1014,1 hPa 0,0 l/m 0 min 0 min 0 W/m 2,3 km/h (1 Bft) 97,87 %
17.06.2018 03:00 14,8 C 13,9 C 13,9 C 83 % 1014,1 hPa 0,0 l/m 0 min 0 min 0 W/m 0,0 km/h (0 Bft) 97,87 %
17.06.2018 03:02 14,8 C 13,9 C 13,9 C 83 % 1014,1 hPa 0,0 l/m 0 min 0 min 0 W/m 2,3 km/h (1 Bft) 97,83 %
17.06.2018 03:04 14,7 C 13,9 C 13,9 C 83 % 1014,1 hPa 0,0 l/m 0 min 0 min 0 W/m 0,0 km/h (0 Bft) 97,62 %
17.06.2018 03:06 14,7 C 13,9 C 13,9 C 83 % 1014,0 hPa 0,0 l/m 0 min 0 min 0 W/m 2,3 km/h (1 Bft) 97,87 %
17.06.2018 03:08 14,7 C 13,9 C 13,9 C 83 % 1014,1 hPa 0,0 l/m 0 min 0 min 0 W/m 0,0 km/h (0 Bft) 97,87 %
17.06.2018 03:10 14,7 C 13,9 C 13,9 C 83 % 1014,1 hPa 0,0 l/m 0 min 0 min 0 W/m 0,0 km/h (0 Bft) 97,87 %
17.06.2018 03:12 14,7 C 13,9 C 13,9 C 83 % 1014,1 hPa 0,0 l/m 0 min 0 min 0 W/m 0,0 km/h (0 Bft) 95,74 %
17.06.2018 03:14 14,7 C 13,9 C 13,9 C 83 % 1014,1 hPa 0,0 l/m 0 min 0 min 0 W/m 0,0 km/h (0 Bft) 97,87 %
17.06.2018 03:16 14,6 C 13,9 C 13,9 C 83 % 1014,1 hPa 0,0 l/m 0 min 0 min 0 W/m 0,0 km/h (0 Bft) 95,65 %
17.06.2018 03:18 14,6 C 13,9 C 13,9 C 83 % 1014,1 hPa 0,0 l/m 0 min 0 min 0 W/m 0,0 km/h (0 Bft) 95,74 %
17.06.2018 03:20 14,6 C 13,9 C 13,9 C 83 % 1014,1 hPa 0,0 l/m 0 min 0 min 0 W/m 0,0 km/h (0 Bft) 97,87 %
17.06.2018 03:22 14,6 C 13,9 C 13,9 C 83 % 1014,1 hPa 0,0 l/m 0 min 0 min 0 W/m 0,0 km/h (0 Bft) 93,62 %
17.06.2018 03:24 14,6 C 13,9 C 13,9 C 83 % 1014,1 hPa 0,0 l/m 0 min 0 min 0 W/m 0,0 km/h (0 Bft) 97,92 %
17.06.2018 03:26 14,6 C 14,4 C 14,4 C 83 % 1014,1 hPa 0,0 l/m 0 min 0 min 0 W/m 4,5 km/h (1 Bft) 100,00 %
17.06.2018 03:28 14,6 C 14,4 C 14,4 C 83 % 1014,1 hPa 0,0 l/m 0 min 0 min 0 W/m 2,3 km/h (1 Bft) 95,65 %
17.06.2018 03:30 14,6 C 14,4 C 14,4 C 83 % 1014,1 hPa 0,0 l/m 0 min 0 min 0 W/m 2,3 km/h (1 Bft) 97,87 %
17.06.2018 03:32 14,6 C 14,4 C 14,4 C 83 % 1014,2 hPa 0,0 l/m 0 min 0 min 0 W/m 2,3 km/h (1 Bft) 97,87 %
17.06.2018 03:34 14,6 C 14,4 C 14,4 C 83 % 1014,2 hPa 0,0 l/m 0 min 0 min 0 W/m 2,3 km/h (1 Bft) 100,00 %
17.06.2018 03:38 14,6 C 14,4 C 14,4 C 83 % 1014,1 hPa 0,0 l/m 0 min 0 min 0 W/m 2,3 km/h (1 Bft) 96,81 %
17.06.2018 03:40 14,6 C 14,4 C 14,4 C 83 % 1014,2 hPa 0,0 l/m 0 min 0 min 0 W/m 2,3 km/h (1 Bft) 97,83 %
17.06.2018 03:42 14,7 C 14,4 C 14,4 C 83 % 1014,1 hPa 0,0 l/m 0 min 0 min 0 W/m 0,0 km/h (0 Bft) 95,83 %
17.06.2018 03:44 14,7 C 14,4 C 14,4 C 83 % 1014,0 hPa 0,0 l/m 0 min 0 min 0 W/m 2,3 km/h (1 Bft) 97,92 %
17.06.2018 03:46 14,7 C 14,4 C 14,4 C 83 % 1014,0 hPa 0,0 l/m 0 min 0 min 0 W/m 2,3 km/h (1 Bft) 97,87 %
17.06.2018 03:48 14,7 C 14,4 C 14,4 C 83 % 1014,0 hPa 0,0 l/m 0 min 0 min 0 W/m 2,3 km/h (1 Bft) 97,87 %
17.06.2018 03:50 14,7 C 14,4 C 14,4 C 83 % 1014,0 hPa 0,0 l/m 0 min 0 min 0 W/m 2,3 km/h (1 Bft) 97,87 %
17.06.2018 03:52 14,7 C 14,4 C 14,4 C 83 % 1014,0 hPa 0,0 l/m 0 min 0 min 0 W/m 2,3 km/h (1 Bft) 97,87 %
17.06.2018 03:54 14,8 C 14,4 C 14,4 C 83 % 1014,0 hPa 0,0 l/m 0 min 0 min 0 W/m 2,3 km/h (1 Bft) 97,87 %
17.06.2018 03:56 14,8 C 14,4 C 14,4 C 83 % 1013,9 hPa 0,0 l/m 0 min 0 min 0 W/m 2,3 km/h (1 Bft) 97,87 %
17.06.2018 03:58 14,8 C 14,4 C 14,4 C 83 % 1014,0 hPa 0,0 l/m 0 min 0 min 0 W/m 0,0 km/h (0 Bft) 97,87 %
17.06.2018 04:00 14,8 C 14,4 C 14,4 C 83 % 1014,0 hPa 0,0 l/m 0 min 0 min 0 W/m 0,0 km/h (0 Bft) 97,87 %
17.06.2018 04:02 14,8 C 14,4 C 14,4 C 83 % 1014,0 hPa 0,0 l/m 0 min 0 min 0 W/m 0,0 km/h (0 Bft) 100,00 %
17.06.2018 04:04 14,8 C 14,4 C 14,4 C 83 % 1014,0 hPa 0,0 l/m 0 min 0 min 0 W/m 2,3 km/h (1 Bft) 100,00 %
17.06.2018 04:06 14,8 C 14,4 C 14,4 C 83 % 1014,0 hPa 0,0 l/m 0 min 0 min 0 W/m 2,3 km/h (1 Bft) 97,87 %
17.06.2018 04:08 14,8 C 14,4 C 14,4 C 83 % 1014,0 hPa 0,0 l/m 0 min 0 min 0 W/m 0,0 km/h (0 Bft) 100,00 %
17.06.2018 04:10 14,8 C 14,4 C 14,4 C 83 % 1014,0 hPa 0,0 l/m 0 min 0 min 0 W/m 2,3 km/h (1 Bft) 97,87 %
17.06.2018 04:12 14,9 C 14,4 C 14,4 C 83 % 1014,0 hPa 0,0 l/m 0 min 0 min 0 W/m 0,0 km/h (0 Bft) 97,83 %
17.06.2018 04:14 14,9 C 14,4 C 14,4 C 83 % 1014,0 hPa 0,0 l/m 0 min 0 min 0 W/m 0,0 km/h (0 Bft) 97,62 %
17.06.2018 04:16 14,9 C 14,4 C 14,4 C 83 % 1014,1 hPa 0,0 l/m 0 min 0 min 0 W/m 2,3 km/h (1 Bft) 97,83 %
17.06.2018 04:18 14,9 C 14,4 C 14,4 C 83 % 1014,0 hPa 0,0 l/m 0 min 0 min 0 W/m 2,3 km/h (1 Bft) 97,87 %
17.06.2018 04:20 14,9 C 14,4 C 14,4 C 83 % 1014,1 hPa 0,0 l/m 0 min 0 min 0 W/m 4,5 km/h (1 Bft) 98,11 %
17.06.2018 04:22 14,9 C 14,4 C 14,4 C 83 % 1014,1 hPa 0,0 l/m 0 min 0 min 0 W/m 2,3 km/h (1 Bft) 97,56 %
17.06.2018 04:24 14,9 C 14,4 C 14,4 C 83 % 1014,1 hPa 0,0 l/m 0 min 0 min 0 W/m 2,3 km/h (1 Bft) 100,00 %
17.06.2018 04:26 14,9 C 14,4 C 14,4 C 83 % 1014,1 hPa 0,0 l/m 0 min 0 min 0 W/m 0,0 km/h (0 Bft) 100,00 %
17.06.2018 04:28 14,9 C 14,4 C 14,4 C 83 % 1014,1 hPa 0,0 l/m 0 min 0 min 0 W/m 0,0 km/h (0 Bft) 100,00 %
17.06.2018 04:30 14,9 C 14,4 C 14,4 C 83 % 1014,2 hPa 0,0 l/m 0 min 0 min 0 W/m 4,5 km/h (1 Bft) 97,87 %
17.06.2018 04:32 14,9 C 14,4 C 14,4 C 83 % 1014,2 hPa 0,0 l/m 0 min 0 min 0 W/m 2,3 km/h (1 Bft) 100,00 %
17.06.2018 04:34 14,9 C 14,4 C 14,4 C 83 % 1014,2 hPa 0,0 l/m 0 min 0 min 0 W/m 2,3 km/h (1 Bft) 100,00 %
17.06.2018 04:36 14,9 C 14,4 C 14,4 C 83 % 1014,1 hPa 0,0 l/m 0 min 0 min 0 W/m 4,5 km/h (1 Bft) 98,11 %
17.06.2018 04:38 14,9 C 14,4 C 14,4 C 83 % 1014,2 hPa 0,0 l/m 0 min 0 min 0 W/m 6,8 km/h (2 Bft) 100,00 %
17.06.2018 04:40 14,9 C 14,4 C 14,4 C 83 % 1014,2 hPa 0,0 l/m 0 min 0 min 0 W/m 2,3 km/h (1 Bft) 100,00 %
17.06.2018 04:42 14,9 C 14,4 C 14,4 C 83 % 1014,2 hPa 0,0 l/m 0 min 0 min 0 W/m 6,8 km/h (2 Bft) 100,00 %
17.06.2018 04:44 14,9 C 14,4 C 14,4 C 82 % 1014,2 hPa 0,0 l/m 0 min 0 min 0 W/m 4,5 km/h (1 Bft) 100,00 %
17.06.2018 04:46 14,9 C 14,4 C 14,4 C 82 % 1014,2 hPa 0,0 l/m 0 min 0 min 0 W/m 6,8 km/h (2 Bft) 100,00 %
17.06.2018 04:48 14,9 C 14,4 C 14,4 C 82 % 1014,2 hPa 0,0 l/m 0 min 0 min 0 W/m 4,5 km/h (1 Bft) 97,87 %
17.06.2018 04:50 14,9 C 14,4 C 14,4 C 82 % 1014,2 hPa 0,0 l/m 0 min 0 min 0 W/m 4,5 km/h (1 Bft) 100,00 %
17.06.2018 04:52 14,9 C 14,4 C 14,4 C 82 % 1014,2 hPa 0,0 l/m 0 min 0 min 0 W/m 2,3 km/h (1 Bft) 100,00 %
17.06.2018 04:54 14,9 C 14,4 C 14,4 C 82 % 1014,2 hPa 0,0 l/m 0 min 0 min 0 W/m 4,5 km/h (1 Bft) 97,92 %
17.06.2018 04:56 14,9 C 14,4 C 14,4 C 82 % 1014,2 hPa 0,0 l/m 0 min 0 min 0 W/m 6,8 km/h (2 Bft) 100,00 %
17.06.2018 04:58 14,9 C 14,4 C 14,4 C 83 % 1014,2 hPa 0,0 l/m 0 min 0 min 0 W/m 2,3 km/h (1 Bft) 100,00 %
17.06.2018 05:00 14,9 C 14,4 C 14,4 C 82 % 1014,3 hPa 0,0 l/m 0 min 0 min 0 W/m 6,8 km/h (2 Bft) 100,00 %
17.06.2018 05:02 14,9 C 14,4 C 14,4 C 82 % 1014,2 hPa 0,0 l/m 0 min 0 min 0 W/m 4,5 km/h (1 Bft) 98,04 %
17.06.2018 05:04 14,9 C 14,4 C 14,4 C 82 % 1014,2 hPa 0,0 l/m 0 min 0 min 0 W/m 2,3 km/h (1 Bft) 97,87 %
17.06.2018 05:06 14,9 C 14,4 C 14,4 C 82 % 1014,2 hPa 0,0 l/m 0 min 0 min 0 W/m 0,0 km/h (0 Bft) 95,74 %
17.06.2018 05:08 14,9 C 14,4 C 14,4 C 82 % 1014,2 hPa 0,0 l/m 0 min 0 min 0 W/m 4,5 km/h (1 Bft) 97,87 %
17.06.2018 05:10 14,9 C 14,4 C 13,9 C 82 % 1014,3 hPa 0,0 l/m 0 min 0 min 0 W/m 4,5 km/h (1 Bft) 97,87 %
17.06.2018 05:12 14,9 C 14,4 C 13,9 C 83 % 1014,2 hPa 0,0 l/m 0 min 0 min 0 W/m 2,3 km/h (1 Bft) 97,87 %
17.06.2018 05:14 14,8 C 14,4 C 13,9 C 82 % 1014,3 hPa 0,0 l/m 0 min 0 min 0 W/m 2,3 km/h (1 Bft) 97,87 %
17.06.2018 05:16 14,8 C 14,4 C 13,9 C 82 % 1014,2 hPa 0,0 l/m 0 min 0 min 0 W/m 0,0 km/h (0 Bft) 97,87 %
17.06.2018 05:18 14,8 C 14,4 C 13,9 C 82 % 1014,2 hPa 0,0 l/m 0 min 0 min 0 W/m 4,5 km/h (1 Bft) 97,87 %
17.06.2018 05:20 14,8 C 14,4 C 14,4 C 82 % 1014,2 hPa 0,0 l/m 0 min 0 min 4 W/m 4,5 km/h (1 Bft) 97,87 %
17.06.2018 05:22 14,8 C 14,4 C 14,4 C 82 % 1014,2 hPa 0,0 l/m 0 min 0 min 5 W/m 4,5 km/h (1 Bft) 97,87 %
17.06.2018 05:24 14,8 C 14,4 C 14,4 C 82 % 1014,3 hPa 0,0 l/m 0 min 0 min 5 W/m 2,3 km/h (1 Bft) 97,87 %
17.06.2018 05:26 14,8 C 14,4 C 14,4 C 82 % 1014,2 hPa 0,0 l/m 0 min 0 min 5 W/m 2,3 km/h (1 Bft) 97,87 %
17.06.2018 05:28 14,8 C 14,4 C 14,4 C 82 % 1014,2 hPa 0,0 l/m 0 min 0 min 5 W/m 0,0 km/h (0 Bft) 95,74 %
17.06.2018 05:30 14,8 C 14,4 C 14,4 C 82 % 1014,2 hPa 0,0 l/m 0 min 0 min 5 W/m 2,3 km/h (1 Bft) 95,74 %
17.06.2018 05:32 14,8 C 14,4 C 14,4 C 82 % 1014,3 hPa 0,0 l/m 0 min 0 min 7 W/m 2,3 km/h (1 Bft) 95,74 %
17.06.2018 05:34 14,8 C 14,4 C 14,4 C 82 % 1014,3 hPa 0,0 l/m 0 min 0 min 7 W/m 2,3 km/h (1 Bft) 95,65 %
17.06.2018 05:35 14,8 C 14,4 C 14,4 C 82 % 1014,2 hPa 0,0 l/m 0 min 0 min 7 W/m 2,3 km/h (1 Bft) 97,37 %
17.06.2018 05:40 14,8 C 14,4 C 14,4 C 82 % 1014,4 hPa 0,0 l/m 0 min 0 min 9 W/m 2,3 km/h (1 Bft) 100,00 %
17.06.2018 05:42 14,8 C 14,4 C 14,4 C 83 % 1014,3 hPa 0,0 l/m 0 min 0 min 11 W/m 4,5 km/h (1 Bft) 95,74 %
17.06.2018 05:44 14,8 C 14,4 C 14,4 C 83 % 1014,4 hPa 0,0 l/m 0 min 0 min 11 W/m 2,3 km/h (1 Bft) 95,74 %
17.06.2018 05:46 14,9 C 14,4 C 14,4 C 83 % 1014,3 hPa 0,0 l/m 0 min 0 min 12 W/m 0,0 km/h (0 Bft) 91,49 %
17.06.2018 05:48 14,9 C 14,4 C 14,4 C 83 % 1014,2 hPa 0,0 l/m 0 min 0 min 13 W/m 0,0 km/h (0 Bft) 95,65 %
17.06.2018 05:50 14,9 C 14,4 C 14,4 C 83 % 1014,3 hPa 0,0 l/m 0 min 0 min 15 W/m 0,0 km/h (0 Bft) 95,74 %
17.06.2018 05:52 14,9 C 14,4 C 14,4 C 82 % 1014,3 hPa 0,0 l/m 0 min 0 min 17 W/m 2,3 km/h (1 Bft) 95,74 %
17.06.2018 05:54 14,9 C 14,4 C 14,4 C 82 % 1014,3 hPa 0,0 l/m 0 min 0 min 19 W/m 2,3 km/h (1 Bft) 94,00 %
17.06.2018 05:56 14,9 C 14,4 C 14,4 C 82 % 1014,3 hPa 0,0 l/m 0 min 0 min 20 W/m 2,3 km/h (1 Bft) 93,62 %
17.06.2018 05:58 14,9 C 14,4 C 14,4 C 82 % 1014,2 hPa 0,0 l/m 0 min 0 min 21 W/m 0,0 km/h (0 Bft) 95,74 %
17.06.2018 06:00 14,9 C 14,4 C 14,4 C 82 % 1014,3 hPa 0,0 l/m 0 min 0 min 23 W/m 2,3 km/h (1 Bft) 95,65 %
17.06.2018 06:02 14,9 C 15,0 C 14,4 C 82 % 1014,4 hPa 0,0 l/m 0 min 0 min 23 W/m 9,0 km/h (2 Bft) 93,62 %
17.06.2018 06:04 14,9 C 15,0 C 14,4 C 82 % 1014,3 hPa 0,0 l/m 0 min 0 min 25 W/m 2,3 km/h (1 Bft) 89,36 %
17.06.2018 06:07 15,0 C 15,0 C 14,4 C 82 % 1014,4 hPa 0,0 l/m 0 min 0 min 30 W/m 4,5 km/h (1 Bft) 89,36 %
17.06.2018 06:08 15,0 C 15,0 C 14,4 C 82 % 1014,4 hPa 0,0 l/m 0 min 0 min 28 W/m 4,5 km/h (1 Bft) 96,88 %
17.06.2018 06:10 15,0 C 15,0 C 14,4 C 82 % 1014,4 hPa 0,0 l/m 0 min 0 min 30 W/m 4,5 km/h (1 Bft) 97,87 %
17.06.2018 06:12 15,0 C 15,0 C 14,4 C 82 % 1014,3 hPa 0,0 l/m 0 min 0 min 33 W/m 2,3 km/h (1 Bft) 95,74 %
17.06.2018 06:14 15,0 C 15,0 C 14,4 C 82 % 1014,3 hPa 0,0 l/m 0 min 0 min 38 W/m 4,5 km/h (1 Bft) 95,74 %
17.06.2018 06:16 15,1 C 15,0 C 14,4 C 82 % 1014,4 hPa 0,0 l/m 0 min 0 min 40 W/m 0,0 km/h (0 Bft) 97,92 %
17.06.2018 06:18 15,1 C 15,0 C 14,4 C 82 % 1014,4 hPa 0,0 l/m 0 min 0 min 42 W/m 0,0 km/h (0 Bft) 95,74 %
17.06.2018 06:20 15,1 C 15,0 C 14,4 C 82 % 1014,4 hPa 0,0 l/m 0 min 0 min 45 W/m 4,5 km/h (1 Bft) 97,87 %
17.06.2018 06:22 15,1 C 15,0 C 14,4 C 82 % 1014,3 hPa 0,0 l/m 0 min 0 min 51 W/m 4,5 km/h (1 Bft) 97,87 %
17.06.2018 06:24 15,1 C 15,0 C 14,4 C 82 % 1014,3 hPa 0,0 l/m 0 min 0 min 55 W/m 2,3 km/h (1 Bft) 97,87 %
17.06.2018 06:26 15,1 C 15,0 C 14,4 C 82 % 1014,4 hPa 0,0 l/m 0 min 0 min 61 W/m 4,5 km/h (1 Bft) 95,74 %
17.06.2018 06:28 15,1 C 15,0 C 14,4 C 82 % 1014,4 hPa 0,0 l/m 0 min 0 min 65 W/m 2,3 km/h (1 Bft) 95,74 %
17.06.2018 06:30 15,2 C 15,0 C 14,4 C 82 % 1014,4 hPa 0,0 l/m 0 min 0 min 68 W/m 4,5 km/h (1 Bft) 97,87 %
17.06.2018 06:32 15,2 C 15,0 C 14,4 C 82 % 1014,4 hPa 0,0 l/m 0 min 0 min 73 W/m 2,3 km/h (1 Bft) 97,83 %
17.06.2018 06:34 15,2 C 15,6 C 15,0 C 82 % 1014,5 hPa 0,0 l/m 2 min 0 min 82 W/m 4,5 km/h (1 Bft) 95,74 %
17.06.2018 06:38 15,2 C 15,6 C 15,0 C 82 % 1014,4 hPa 0,0 l/m 0 min 0 min 82 W/m 2,3 km/h (1 Bft) 96,81 %
17.06.2018 06:40 15,3 C 15,6 C 15,0 C 82 % 1014,3 hPa 0,0 l/m 0 min 0 min 88 W/m 4,5 km/h (1 Bft) 95,74 %
17.06.2018 06:42 15,3 C 15,6 C 15,0 C 82 % 1014,4 hPa 0,0 l/m 0 min 0 min 90 W/m 4,5 km/h (1 Bft) 97,87 %
17.06.2018 06:44 15,3 C 15,6 C 15,0 C 82 % 1014,4 hPa 0,0 l/m 0 min 0 min 90 W/m 4,5 km/h (1 Bft) 97,83 %
17.06.2018 06:46 15,3 C 15,6 C 15,0 C 82 % 1014,4 hPa 0,0 l/m 0 min 0 min 91 W/m 2,3 km/h (1 Bft) 97,87 %
17.06.2018 06:48 15,3 C 15,6 C 15,0 C 82 % 1014,4 hPa 0,0 l/m 0 min 0 min 94 W/m 6,8 km/h (2 Bft) 97,87 %
17.06.2018 06:50 15,4 C 15,6 C 15,0 C 82 % 1014,5 hPa 0,0 l/m 0 min 0 min 94 W/m 4,5 km/h (1 Bft) 93,62 %
17.06.2018 06:52 15,4 C 15,6 C 15,0 C 82 % 1014,4 hPa 0,0 l/m 0 min 0 min 78 W/m 9,0 km/h (2 Bft) 97,87 %
17.06.2018 06:54 15,4 C 15,6 C 15,0 C 82 % 1014,4 hPa 0,0 l/m 0 min 0 min 71 W/m 4,5 km/h (1 Bft) 97,87 %
17.06.2018 06:56 15,4 C 15,6 C 15,0 C 82 % 1014,3 hPa 0,0 l/m 0 min 0 min 71 W/m 4,5 km/h (1 Bft) 97,83 %
17.06.2018 06:58 15,4 C 15,6 C 15,0 C 82 % 1014,3 hPa 0,0 l/m 0 min 0 min 69 W/m 4,5 km/h (1 Bft) 97,87 %
17.06.2018 07:00 15,5 C 15,6 C 15,0 C 82 % 1014,3 hPa 0,0 l/m 0 min 0 min 72 W/m 4,5 km/h (1 Bft) 95,74 %
17.06.2018 07:02 15,5 C 15,6 C 15,0 C 82 % 1014,4 hPa 0,0 l/m 0 min 0 min 66 W/m 6,8 km/h (2 Bft) 97,87 %
17.06.2018 07:04 15,5 C 15,6 C 15,0 C 82 % 1014,4 hPa 0,0 l/m 0 min 0 min 55 W/m 6,8 km/h (2 Bft) 97,87 %
17.06.2018 07:06 15,5 C 15,6 C 15,0 C 82 % 1014,4 hPa 0,0 l/m 0 min 0 min 63 W/m 6,8 km/h (2 Bft) 97,87 %
17.06.2018 07:08 15,5 C 15,6 C 15,0 C 81 % 1014,4 hPa 0,0 l/m 0 min 0 min 81 W/m 6,8 km/h (2 Bft) 97,83 %
17.06.2018 07:10 15,6 C 15,6 C 15,0 C 81 % 1014,4 hPa 0,0 l/m 0 min 0 min 81 W/m 6,8 km/h (2 Bft) 97,87 %
17.06.2018 07:12 15,6 C 15,6 C 15,0 C 82 % 1014,4 hPa 0,0 l/m 0 min 0 min 87 W/m 4,5 km/h (1 Bft) 95,74 %
17.06.2018 07:14 15,6 C 15,6 C 15,0 C 82 % 1014,3 hPa 0,0 l/m 0 min 0 min 77 W/m 6,8 km/h (2 Bft) 100,00 %
17.06.2018 07:16 15,6 C 15,6 C 15,0 C 82 % 1014,3 hPa 0,0 l/m 0 min 0 min 78 W/m 6,8 km/h (2 Bft) 100,00 %
17.06.2018 07:18 15,6 C 15,6 C 15,0 C 82 % 1014,4 hPa 0,0 l/m 0 min 0 min 85 W/m 6,8 km/h (2 Bft) 100,00 %
17.06.2018 07:20 15,6 C 15,6 C 15,0 C 82 % 1014,4 hPa 0,0 l/m 0 min 0 min 90 W/m 4,5 km/h (1 Bft) 100,00 %
17.06.2018 07:22 15,6 C 15,6 C 15,0 C 82 % 1014,4 hPa 0,0 l/m 0 min 0 min 89 W/m 4,5 km/h (1 Bft) 100,00 %
17.06.2018 07:24 15,7 C 15,6 C 15,0 C 82 % 1014,4 hPa 0,0 l/m 0 min 0 min 90 W/m 4,5 km/h (1 Bft) 100,00 %
17.06.2018 07:26 15,7 C 16,1 C 15,0 C 82 % 1014,5 hPa 0,0 l/m 0 min 0 min 95 W/m 9,0 km/h (2 Bft) 100,00 %
17.06.2018 07:28 15,7 C 16,1 C 15,0 C 81 % 1014,5 hPa 0,0 l/m 0 min 0 min 111 W/m 4,5 km/h (1 Bft) 100,00 %
17.06.2018 07:30 15,7 C 16,1 C 15,0 C 81 % 1014,5 hPa 0,0 l/m 0 min 0 min 124 W/m 4,5 km/h (1 Bft) 95,74 %
17.06.2018 07:32 15,7 C 16,1 C 15,6 C 82 % 1014,4 hPa 0,0 l/m 0 min 0 min 128 W/m 9,0 km/h (2 Bft) 100,00 %
17.06.2018 07:34 15,8 C 16,7 C 15,6 C 82 % 1014,5 hPa 0,0 l/m 0 min 0 min 144 W/m 6,8 km/h (2 Bft) 100,00 %
17.06.2018 07:36 15,8 C 16,7 C 15,6 C 81 % 1014,5 hPa 0,0 l/m 0 min 0 min 151 W/m 4,5 km/h (1 Bft) 100,00 %
17.06.2018 07:38 15,9 C 16,7 C 15,6 C 81 % 1014,5 hPa 0,0 l/m 0 min 0 min 151 W/m 4,5 km/h (1 Bft) 100,00 %
17.06.2018 07:40 15,9 C 16,7 C 15,6 C 81 % 1014,6 hPa 0,0 l/m 0 min 0 min 154 W/m 9,0 km/h (2 Bft) 100,00 %
17.06.2018 07:42 15,9 C 16,7 C 15,6 C 81 % 1014,6 hPa 0,0 l/m 0 min 0 min 153 W/m 9,0 km/h (2 Bft) 100,00 %
17.06.2018 07:44 16,0 C 16,7 C 15,6 C 81 % 1014,5 hPa 0,0 l/m 0 min 0 min 155 W/m 6,8 km/h (2 Bft) 97,83 %
17.06.2018 07:46 16,1 C 16,7 C 15,6 C 80 % 1014,6 hPa 0,0 l/m 0 min 0 min 153 W/m 11,3 km/h (2 Bft) 100,00 %
17.06.2018 07:48 16,1 C 16,7 C 15,6 C 79 % 1014,6 hPa 0,0 l/m 0 min 0 min 153 W/m 13,5 km/h (3 Bft) 100,00 %
17.06.2018 07:50 16,2 C 16,7 C 15,6 C 79 % 1014,5 hPa 0,0 l/m 0 min 0 min 149 W/m 4,5 km/h (1 Bft) 100,00 %
17.06.2018 07:52 16,2 C 16,7 C 15,6 C 79 % 1014,6 hPa 0,0 l/m 0 min 0 min 147 W/m 13,5 km/h (3 Bft) 100,00 %
17.06.2018 07:54 16,2 C 16,7 C 15,6 C 79 % 1014,6 hPa 0,0 l/m 0 min 0 min 159 W/m 6,8 km/h (2 Bft) 100,00 %
17.06.2018 07:56 16,3 C 17,2 C 15,6 C 79 % 1014,6 hPa 0,0 l/m 0 min 0 min 182 W/m 9,0 km/h (2 Bft) 100,00 %
17.06.2018 07:58 16,3 C 17,8 C 15,6 C 79 % 1014,6 hPa 0,0 l/m 2 min 0 min 194 W/m 6,8 km/h (2 Bft) 100,00 %
17.06.2018 08:00 16,4 C 18,3 C 15,6 C 79 % 1014,6 hPa 0,0 l/m 0 min 0 min 182 W/m 6,8 km/h (2 Bft) 100,00 %
17.06.2018 08:02 16,4 C 17,8 C 15,6 C 79 % 1014,6 hPa 0,0 l/m 0 min 0 min 179 W/m 9,0 km/h (2 Bft) 100,00 %
17.06.2018 08:04 16,5 C 17,8 C 15,6 C 79 % 1014,6 hPa 0,0 l/m 0 min 0 min 151 W/m 6,8 km/h (2 Bft) 97,87 %
17.06.2018 08:06 16,5 C 17,2 C 16,1 C 79 % 1014,6 hPa 0,0 l/m 0 min 0 min 137 W/m 4,5 km/h (1 Bft) 100,00 %
17.06.2018 08:08 16,6 C 17,2 C 15,6 C 79 % 1014,6 hPa 0,0 l/m 0 min 0 min 152 W/m 6,8 km/h (2 Bft) 100,00 %
17.06.2018 08:10 16,6 C 16,7 C 15,6 C 78 % 1014,6 hPa 0,0 l/m 0 min 0 min 176 W/m 9,0 km/h (2 Bft) 100,00 %
17.06.2018 08:12 16,6 C 17,2 C 15,6 C 78 % 1014,6 hPa 0,0 l/m 0 min 0 min 182 W/m 9,0 km/h (2 Bft) 98,28 %
17.06.2018 08:14 16,6 C 17,2 C 15,6 C 78 % 1014,6 hPa 0,0 l/m 0 min 0 min 176 W/m 4,5 km/h (1 Bft) 100,00 %
17.06.2018 08:16 16,7 C 16,7 C 15,6 C 78 % 1014,6 hPa 0,0 l/m 0 min 0 min 187 W/m 6,8 km/h (2 Bft) 97,87 %
17.06.2018 08:18 16,7 C 17,2 C 15,6 C 78 % 1014,6 hPa 0,0 l/m 0 min 0 min 184 W/m 6,8 km/h (2 Bft) 97,87 %
17.06.2018 08:20 16,7 C 17,2 C 15,6 C 78 % 1014,7 hPa 0,0 l/m 2 min 0 min 251 W/m 4,5 km/h (1 Bft) 95,65 %
17.06.2018 08:22 16,7 C 17,2 C 16,1 C 78 % 1014,7 hPa 0,0 l/m 2 min 0 min 273 W/m 6,8 km/h (2 Bft) 95,74 %
17.06.2018 08:24 16,8 C 17,2 C 16,1 C 78 % 1014,7 hPa 0,0 l/m 2 min 0 min 277 W/m 4,5 km/h (1 Bft) 97,87 %
17.06.2018 08:26 16,8 C 17,8 C 16,1 C 78 % 1014,7 hPa 0,0 l/m 2 min 0 min 242 W/m 4,5 km/h (1 Bft) 97,87 %
17.06.2018 08:28 16,8 C 17,2 C 16,1 C 78 % 1014,7 hPa 0,0 l/m 0 min 0 min 225 W/m 9,0 km/h (2 Bft) 97,87 %
17.06.2018 08:30 16,8 C 17,2 C 16,1 C 78 % 1014,7 hPa 0,0 l/m 0 min 0 min 195 W/m 9,0 km/h (2 Bft) 97,83 %
17.06.2018 08:32 16,9 C 17,2 C 16,1 C 78 % 1014,7 hPa 0,0 l/m 0 min 0 min 173 W/m 4,5 km/h (1 Bft) 97,87 %
17.06.2018 08:34 16,9 C 17,2 C 16,1 C 78 % 1014,7 hPa 0,0 l/m 0 min 0 min 187 W/m 6,8 km/h (2 Bft) 97,87 %
17.06.2018 08:36 16,9 C 17,2 C 16,1 C 78 % 1014,7 hPa 0,0 l/m 0 min 0 min 207 W/m 6,8 km/h (2 Bft) 95,74 %
17.06.2018 08:38 16,9 C 17,2 C 16,1 C 77 % 1014,7 hPa 0,0 l/m 0 min 0 min 231 W/m 4,5 km/h (1 Bft) 93,62 %
17.06.2018 08:40 16,9 C 17,2 C 16,1 C 77 % 1014,7 hPa 0,0 l/m 0 min 0 min 214 W/m 6,8 km/h (2 Bft) 95,74 %
17.06.2018 08:42 16,9 C 17,2 C 16,1 C 77 % 1014,8 hPa 0,0 l/m 0 min 0 min 240 W/m 11,3 km/h (2 Bft) 97,83 %
17.06.2018 08:44 16,9 C 17,2 C 16,1 C 77 % 1014,8 hPa 0,0 l/m 0 min 0 min 225 W/m 11,3 km/h (2 Bft) 95,74 %
17.06.2018 08:46 16,9 C 17,2 C 16,1 C 77 % 1014,8 hPa 0,0 l/m 0 min 0 min 209 W/m 6,8 km/h (2 Bft) 95,74 %
17.06.2018 08:48 16,9 C 17,2 C 16,1 C 77 % 1014,8 hPa 0,0 l/m 0 min 0 min 230 W/m 9,0 km/h (2 Bft) 95,74 %
17.06.2018 08:50 16,9 C 17,2 C 16,1 C 77 % 1014,9 hPa 0,0 l/m 0 min 0 min 234 W/m 6,8 km/h (2 Bft) 93,62 %
17.06.2018 08:52 16,9 C 17,2 C 16,1 C 76 % 1014,8 hPa 0,0 l/m 0 min 0 min 207 W/m 4,5 km/h (1 Bft) 95,74 %
17.06.2018 08:54 16,9 C 17,2 C 16,1 C 77 % 1014,8 hPa 0,0 l/m 0 min 0 min 195 W/m 6,8 km/h (2 Bft) 95,65 %
17.06.2018 08:56 16,9 C 17,2 C 16,1 C 77 % 1014,9 hPa 0,0 l/m 0 min 0 min 198 W/m 4,5 km/h (1 Bft) 97,87 %
17.06.2018 08:58 17,0 C 17,2 C 16,1 C 77 % 1014,8 hPa 0,0 l/m 0 min 0 min 202 W/m 6,8 km/h (2 Bft) 95,74 %
17.06.2018 09:00 17,0 C 17,2 C 16,1 C 78 % 1014,9 hPa 0,0 l/m 0 min 0 min 210 W/m 6,8 km/h (2 Bft) 97,87 %
17.06.2018 09:02 17,1 C 17,8 C 16,1 C 78 % 1014,9 hPa 0,0 l/m 0 min 0 min 226 W/m 9,0 km/h (2 Bft) 95,74 %
17.06.2018 09:04 17,1 C 17,8 C 16,1 C 77 % 1014,9 hPa 0,0 l/m 0 min 0 min 232 W/m 6,8 km/h (2 Bft) 93,62 %
17.06.2018 09:06 17,1 C 17,8 C 16,1 C 77 % 1014,9 hPa 0,0 l/m 0 min 0 min 239 W/m 6,8 km/h (2 Bft) 95,65 %
17.06.2018 09:08 17,1 C 17,8 C 16,1 C 77 % 1014,9 hPa 0,0 l/m 0 min 0 min 264 W/m 9,0 km/h (2 Bft) 93,62 %
17.06.2018 09:10 17,1 C 17,8 C 16,1 C 77 % 1014,9 hPa 0,0 l/m 0 min 0 min 247 W/m 6,8 km/h (2 Bft) 93,75 %
17.06.2018 09:12 17,1 C 17,8 C 16,1 C 76 % 1015,0 hPa 0,0 l/m 0 min 0 min 244 W/m 9,0 km/h (2 Bft) 95,74 %
17.06.2018 09:14 17,1 C 17,8 C 16,1 C 77 % 1015,0 hPa 0,0 l/m 0 min 0 min 257 W/m 4,5 km/h (1 Bft) 95,74 %
17.06.2018 09:16 17,1 C 17,8 C 16,1 C 77 % 1015,0 hPa 0,0 l/m 0 min 0 min 245 W/m 11,3 km/h (2 Bft) 93,48 %
17.06.2018 09:18 17,1 C 17,8 C 16,1 C 77 % 1015,0 hPa 0,0 l/m 0 min 0 min 232 W/m 9,0 km/h (2 Bft) 95,74 %
17.06.2018 09:20 17,1 C 17,2 C 16,1 C 76 % 1014,9 hPa 0,0 l/m 0 min 0 min 229 W/m 15,8 km/h (3 Bft) 95,74 %
17.06.2018 09:22 17,1 C 17,2 C 16,1 C 76 % 1015,0 hPa 0,0 l/m 0 min 0 min 221 W/m 9,0 km/h (2 Bft) 95,74 %
17.06.2018 09:24 17,1 C 17,2 C 16,1 C 76 % 1015,0 hPa 0,0 l/m 0 min 0 min 226 W/m 9,0 km/h (2 Bft) 97,87 %
17.06.2018 09:26 17,1 C 17,2 C 16,1 C 77 % 1015,0 hPa 0,0 l/m 0 min 0 min 240 W/m 4,5 km/h (1 Bft) 97,87 %
17.06.2018 09:28 17,1 C 17,8 C 16,1 C 77 % 1015,0 hPa 0,0 l/m 0 min 0 min 259 W/m 6,8 km/h (2 Bft) 95,65 %
17.06.2018 09:30 17,1 C 17,8 C 16,1 C 76 % 1015,0 hPa 0,0 l/m 0 min 0 min 291 W/m 6,8 km/h (2 Bft) 95,74 %
17.06.2018 09:32 17,1 C 17,8 C 16,1 C 76 % 1015,0 hPa 0,0 l/m 2 min 0 min 329 W/m 11,3 km/h (2 Bft) 95,74 %
17.06.2018 09:34 17,1 C 17,8 C 16,1 C 76 % 1015,0 hPa 0,0 l/m 0 min 0 min 293 W/m 11,3 km/h (2 Bft) 97,87 %
17.06.2018 09:36 17,1 C 17,8 C 16,1 C 76 % 1015,0 hPa 0,0 l/m 0 min 0 min 250 W/m 4,5 km/h (1 Bft) 95,74 %
17.06.2018 09:38 17,2 C 17,8 C 16,1 C 76 % 1015,1 hPa 0,0 l/m 0 min 0 min 255 W/m 4,5 km/h (1 Bft) 97,87 %
17.06.2018 09:40 17,2 C 17,8 C 16,1 C 76 % 1015,2 hPa 0,0 l/m 0 min 0 min 285 W/m 6,8 km/h (2 Bft) 97,83 %
17.06.2018 09:42 17,2 C 17,8 C 16,7 C 75 % 1015,3 hPa 0,0 l/m 0 min 0 min 300 W/m 6,8 km/h (2 Bft) 97,22 %
17.06.2018 09:44 17,2 C 17,8 C 16,1 C 74 % 1015,4 hPa 0,0 l/m 2 min 0 min 322 W/m 11,3 km/h (2 Bft) 96,49 %
17.06.2018 09:46 17,2 C 18,3 C 16,7 C 74 % 1015,2 hPa 0,0 l/m 2 min 0 min 342 W/m 6,8 km/h (2 Bft) 97,87 %
17.06.2018 09:48 17,3 C 18,3 C 16,7 C 75 % 1015,1 hPa 0,0 l/m 2 min 0 min 392 W/m 9,0 km/h (2 Bft) 97,87 %
17.06.2018 09:50 17,3 C 18,3 C 16,7 C 75 % 1015,1 hPa 0,0 l/m 2 min 0 min 365 W/m 11,3 km/h (2 Bft) 97,87 %
17.06.2018 09:52 17,4 C 18,3 C 16,7 C 74 % 1015,2 hPa 0,0 l/m 2 min 0 min 362 W/m 13,5 km/h (3 Bft) 97,87 %
17.06.2018 09:54 17,4 C 18,9 C 16,7 C 74 % 1015,4 hPa 0,0 l/m 2 min 0 min 418 W/m 11,3 km/h (2 Bft) 97,87 %
17.06.2018 09:56 17,5 C 18,9 C 17,2 C 74 % 1015,2 hPa 0,0 l/m 2 min 0 min 407 W/m 6,8 km/h (2 Bft) 97,87 %
17.06.2018 09:58 17,6 C 18,9 C 17,2 C 74 % 1015,3 hPa 0,0 l/m 2 min 0 min 380 W/m 11,3 km/h (2 Bft) 97,14 %
17.06.2018 10:00 17,6 C 18,9 C 17,2 C 73 % 1015,4 hPa 0,0 l/m 2 min 0 min 385 W/m 6,8 km/h (2 Bft) 98,00 %
17.06.2018 10:02 17,7 C 19,4 C 17,2 C 74 % 1015,4 hPa 0,0 l/m 2 min 0 min 402 W/m 11,3 km/h (2 Bft) 97,87 %
17.06.2018 10:04 17,8 C 18,9 C 17,2 C 74 % 1015,2 hPa 0,0 l/m 2 min 0 min 358 W/m 13,5 km/h (3 Bft) 97,83 %
17.06.2018 10:06 17,8 C 18,9 C 17,2 C 73 % 1015,4 hPa 0,0 l/m 2 min 0 min 346 W/m 6,8 km/h (2 Bft) 97,87 %
17.06.2018 10:08 17,8 C 18,9 C 17,2 C 73 % 1015,2 hPa 0,0 l/m 0 min 0 min 331 W/m 9,0 km/h (2 Bft) 97,87 %
17.06.2018 10:10 17,9 C 18,9 C 17,2 C 73 % 1015,4 hPa 0,0 l/m 0 min 0 min 331 W/m 6,8 km/h (2 Bft) 97,87 %
17.06.2018 10:12 17,9 C 18,9 C 17,2 C 73 % 1015,3 hPa 0,0 l/m 0 min 0 min 343 W/m 6,8 km/h (2 Bft) 95,74 %
17.06.2018 10:14 18,0 C 18,9 C 17,2 C 73 % 1015,3 hPa 0,0 l/m 2 min 0 min 353 W/m 9,0 km/h (2 Bft) 97,87 %
17.06.2018 10:16 18,0 C 18,9 C 17,2 C 73 % 1015,3 hPa 0,0 l/m 2 min 0 min 376 W/m 6,8 km/h (2 Bft) 97,83 %
17.06.2018 10:18 18,1 C 19,4 C 17,2 C 74 % 1015,2 hPa 0,0 l/m 2 min 0 min 408 W/m 4,5 km/h (1 Bft) 97,87 %
17.06.2018 10:20 18,1 C 18,9 C 17,2 C 74 % 1015,2 hPa 0,0 l/m 2 min 0 min 430 W/m 6,8 km/h (2 Bft) 97,87 %
17.06.2018 10:22 18,1 C 18,9 C 17,2 C 73 % 1015,1 hPa 0,0 l/m 2 min 0 min 406 W/m 6,8 km/h (2 Bft) 97,87 %
17.06.2018 10:24 18,2 C 18,9 C 17,2 C 73 % 1015,2 hPa 0,0 l/m 2 min 0 min 373 W/m 4,5 km/h (1 Bft) 97,87 %
17.06.2018 10:26 18,2 C 18,9 C 17,2 C 73 % 1015,3 hPa 0,0 l/m 0 min 0 min 355 W/m 9,0 km/h (2 Bft) 97,83 %
17.06.2018 10:28 18,2 C 18,9 C 17,2 C 73 % 1015,3 hPa 0,0 l/m 0 min 0 min 351 W/m 6,8 km/h (2 Bft) 97,87 %
17.06.2018 10:30 18,2 C 18,9 C 17,2 C 73 % 1015,2 hPa 0,0 l/m 0 min 0 min 364 W/m 6,8 km/h (2 Bft) 100,00 %
17.06.2018 10:32 18,2 C 19,4 C 17,2 C 73 % 1015,2 hPa 0,0 l/m 2 min 0 min 396 W/m 6,8 km/h (2 Bft) 97,87 %
17.06.2018 10:34 18,3 C 19,4 C 17,8 C 73 % 1015,3 hPa 0,0 l/m 2 min 0 min 411 W/m 13,5 km/h (3 Bft) 100,00 %
17.06.2018 10:36 18,3 C 19,4 C 17,8 C 72 % 1015,3 hPa 0,0 l/m 2 min 0 min 404 W/m 6,8 km/h (2 Bft) 100,00 %
17.06.2018 10:38 18,3 C 18,9 C 17,2 C 72 % 1015,3 hPa 0,0 l/m 2 min 0 min 392 W/m 11,3 km/h (2 Bft) 100,00 %
17.06.2018 10:40 18,4 C 18,9 C 17,2 C 72 % 1015,3 hPa 0,0 l/m 2 min 0 min 377 W/m 9,0 km/h (2 Bft) 100,00 %
17.06.2018 10:42 18,4 C 18,9 C 17,2 C 71 % 1015,3 hPa 0,0 l/m 0 min 0 min 371 W/m 6,8 km/h (2 Bft) 100,00 %
17.06.2018 10:44 18,4 C 18,9 C 17,2 C 71 % 1015,3 hPa 0,0 l/m 0 min 0 min 365 W/m 11,3 km/h (2 Bft) 100,00 %
17.06.2018 10:46 18,4 C 18,9 C 17,2 C 71 % 1015,2 hPa 0,0 l/m 0 min 0 min 362 W/m 6,8 km/h (2 Bft) 97,87 %
17.06.2018 10:48 18,4 C 19,4 C 17,2 C 72 % 1015,1 hPa 0,0 l/m 0 min 0 min 371 W/m 4,5 km/h (1 Bft) 97,87 %
17.06.2018 10:50 18,4 C 19,4 C 17,8 C 72 % 1015,2 hPa 0,0 l/m 0 min 0 min 378 W/m 9,0 km/h (2 Bft) 97,83 %
17.06.2018 10:52 18,4 C 19,4 C 17,8 C 71 % 1015,2 hPa 0,0 l/m 2 min 0 min 394 W/m 11,3 km/h (2 Bft) 97,87 %
17.06.2018 10:54 18,5 C 19,4 C 17,8 C 71 % 1015,2 hPa 0,0 l/m 2 min 0 min 393 W/m 9,0 km/h (2 Bft) 97,87 %
17.06.2018 10:56 18,5 C 19,4 C 17,8 C 70 % 1015,4 hPa 0,0 l/m 2 min 0 min 399 W/m 11,3 km/h (2 Bft) 97,87 %
17.06.2018 10:58 18,5 C 19,4 C 17,2 C 70 % 1015,3 hPa 0,0 l/m 2 min 0 min 419 W/m 9,0 km/h (2 Bft) 97,87 %
17.06.2018 11:00 18,5 C 19,4 C 17,2 C 71 % 1015,3 hPa 0,0 l/m 2 min 0 min 456 W/m 6,8 km/h (2 Bft) 95,74 %
17.06.2018 11:02 18,6 C 20,0 C 17,8 C 71 % 1015,2 hPa 0,0 l/m 2 min 0 min 453 W/m 6,8 km/h (2 Bft) 97,83 %
17.06.2018 11:04 18,6 C 20,0 C 17,8 C 71 % 1015,2 hPa 0,0 l/m 2 min 0 min 449 W/m 6,8 km/h (2 Bft) 95,74 %
17.06.2018 11:06 18,6 C 20,0 C 17,8 C 71 % 1015,3 hPa 0,0 l/m 2 min 0 min 465 W/m 9,0 km/h (2 Bft) 97,87 %
17.06.2018 11:08 18,7 C 20,0 C 17,8 C 72 % 1015,3 hPa 0,0 l/m 2 min 0 min 434 W/m 11,3 km/h (2 Bft) 97,87 %
17.06.2018 11:10 18,7 C 20,0 C 17,8 C 71 % 1015,4 hPa 0,0 l/m 2 min 0 min 403 W/m 9,0 km/h (2 Bft) 97,87 %
17.06.2018 11:12 18,7 C 20,0 C 17,8 C 72 % 1015,3 hPa 0,0 l/m 0 min 0 min 382 W/m 11,3 km/h (2 Bft) 97,87 %
17.06.2018 11:14 18,7 C 20,6 C 17,8 C 71 % 1015,3 hPa 0,0 l/m 2 min 0 min 415 W/m 6,8 km/h (2 Bft) 97,83 %
17.06.2018 11:16 18,8 C 20,6 C 17,8 C 72 % 1015,3 hPa 0,0 l/m 2 min 0 min 480 W/m 11,3 km/h (2 Bft) 95,74 %
17.06.2018 11:18 18,8 C 20,6 C 17,8 C 71 % 1015,3 hPa 0,0 l/m 2 min 0 min 489 W/m 6,8 km/h (2 Bft) 97,87 %
17.06.2018 11:20 18,8 C 20,6 C 17,8 C 71 % 1015,4 hPa 0,0 l/m 2 min 0 min 479 W/m 13,5 km/h (3 Bft) 97,87 %
17.06.2018 11:22 18,9 C 21,1 C 18,3 C 70 % 1015,4 hPa 0,0 l/m 2 min 0 min 546 W/m 9,0 km/h (2 Bft) 97,87 %
17.06.2018 11:24 18,9 C 20,6 C 18,3 C 71 % 1015,4 hPa 0,0 l/m 2 min 0 min 459 W/m 13,5 km/h (3 Bft) 97,87 %
17.06.2018 11:26 19,0 C 20,6 C 18,3 C 70 % 1015,4 hPa 0,0 l/m 2 min 0 min 456 W/m 9,0 km/h (2 Bft) 97,83 %
17.06.2018 11:28 19,1 C 21,1 C 18,3 C 70 % 1015,2 hPa 0,0 l/m 2 min 0 min 474 W/m 6,8 km/h (2 Bft) 100,00 %
17.06.2018 11:30 19,1 C 20,6 C 18,3 C 70 % 1015,3 hPa 0,0 l/m 2 min 0 min 484 W/m 15,8 km/h (3 Bft) 100,00 %
17.06.2018 11:32 19,1 C 21,1 C 18,3 C 69 % 1015,4 hPa 0,0 l/m 2 min 0 min 489 W/m 11,3 km/h (2 Bft) 97,87 %
17.06.2018 11:34 19,2 C 20,6 C 18,3 C 70 % 1015,4 hPa 0,0 l/m 2 min 0 min 460 W/m 11,3 km/h (2 Bft) 100,00 %
17.06.2018 11:36 19,2 C 20,6 C 18,3 C 69 % 1015,4 hPa 0,0 l/m 2 min 0 min 519 W/m 11,3 km/h (2 Bft) 100,00 %
17.06.2018 11:38 19,2 C 20,6 C 18,3 C 69 % 1015,3 hPa 0,0 l/m 2 min 0 min 440 W/m 6,8 km/h (2 Bft) 100,00 %
17.06.2018 11:40 19,3 C 20,0 C 18,3 C 69 % 1015,4 hPa 0,0 l/m 0 min 0 min 386 W/m 18,0 km/h (3 Bft) 95,74 %
17.06.2018 11:42 19,2 C 20,0 C 17,8 C 68 % 1015,3 hPa 0,0 l/m 0 min 0 min 368 W/m 9,0 km/h (2 Bft) 97,87 %
17.06.2018 11:44 19,3 C 20,0 C 17,8 C 69 % 1015,4 hPa 0,0 l/m 0 min 0 min 407 W/m 9,0 km/h (2 Bft) 97,87 %
17.06.2018 11:46 19,3 C 20,0 C 18,3 C 69 % 1015,4 hPa 0,0 l/m 0 min 0 min 405 W/m 15,8 km/h (3 Bft) 97,87 %
17.06.2018 11:48 19,2 C 20,0 C 17,8 C 69 % 1015,4 hPa 0,0 l/m 0 min 0 min 356 W/m 11,3 km/h (2 Bft) 97,87 %
17.06.2018 11:50 19,2 C 20,0 C 18,3 C 69 % 1015,5 hPa 0,0 l/m 0 min 0 min 349 W/m 9,0 km/h (2 Bft) 97,83 %
17.06.2018 11:52 19,2 C 19,4 C 17,8 C 69 % 1015,4 hPa 0,0 l/m 0 min 0 min 326 W/m 11,3 km/h (2 Bft) 98,11 %
17.06.2018 11:54 19,2 C 19,4 C 17,8 C 69 % 1015,5 hPa 0,0 l/m 0 min 0 min 331 W/m 11,3 km/h (2 Bft) 97,87 %
17.06.2018 11:56 19,2 C 19,4 C 17,8 C 69 % 1015,5 hPa 0,0 l/m 0 min 0 min 322 W/m 11,3 km/h (2 Bft) 97,87 %
17.06.2018 11:58 19,1 C 19,4 C 17,8 C 69 % 1015,5 hPa 0,0 l/m 0 min 0 min 340 W/m 9,0 km/h (2 Bft) 95,74 %
17.06.2018 12:00 19,1 C 19,4 C 17,8 C 70 % 1015,5 hPa 0,0 l/m 0 min 0 min 359 W/m 6,8 km/h (2 Bft) 97,87 %
17.06.2018 12:02 19,1 C 19,4 C 17,8 C 70 % 1015,6 hPa 0,0 l/m 0 min 0 min 413 W/m 11,3 km/h (2 Bft) 97,83 %
17.06.2018 12:04 19,1 C 20,0 C 17,8 C 70 % 1015,5 hPa 0,0 l/m 2 min 0 min 436 W/m 6,8 km/h (2 Bft) 97,87 %
17.06.2018 12:08 19,1 C 20,6 C 17,8 C 69 % 1015,5 hPa 0,0 l/m 4 min 0 min 474 W/m 9,0 km/h (2 Bft) 96,88 %
17.06.2018 12:10 19,1 C 20,6 C 17,8 C 69 % 1015,5 hPa 0,0 l/m 2 min 0 min 469 W/m 6,8 km/h (2 Bft) 97,87 %
17.06.2018 12:12 19,1 C 20,0 C 18,3 C 69 % 1015,5 hPa 0,0 l/m 2 min 0 min 438 W/m 6,8 km/h (2 Bft) 97,83 %
17.06.2018 12:14 19,1 C 20,0 C 18,3 C 69 % 1015,5 hPa 0,0 l/m 2 min 0 min 491 W/m 11,3 km/h (2 Bft) 97,87 %
17.06.2018 12:16 19,2 C 20,6 C 18,3 C 69 % 1015,6 hPa 0,0 l/m 2 min 0 min 457 W/m 4,5 km/h (1 Bft) 95,74 %
17.06.2018 12:18 19,2 C 20,0 C 18,3 C 69 % 1015,5 hPa 0,0 l/m 0 min 0 min 374 W/m 9,0 km/h (2 Bft) 97,87 %
17.06.2018 12:20 19,2 C 19,4 C 18,3 C 68 % 1015,6 hPa 0,0 l/m 0 min 0 min 303 W/m 6,8 km/h (2 Bft) 97,87 %
17.06.2018 12:22 19,2 C 19,4 C 17,8 C 68 % 1015,6 hPa 0,0 l/m 0 min 0 min 288 W/m 11,3 km/h (2 Bft) 97,92 %
17.06.2018 12:24 19,1 C 18,9 C 17,8 C 67 % 1015,5 hPa 0,0 l/m 0 min 0 min 269 W/m 11,3 km/h (2 Bft) 97,14 %
17.06.2018 12:26 19,1 C 18,9 C 17,8 C 68 % 1015,5 hPa 0,0 l/m 0 min 0 min 247 W/m 9,0 km/h (2 Bft) 98,25 %
17.06.2018 12:28 19,0 C 18,9 C 17,8 C 67 % 1015,7 hPa 0,0 l/m 0 min 0 min 232 W/m 11,3 km/h (2 Bft) 95,74 %
17.06.2018 12:30 18,9 C 18,9 C 17,8 C 68 % 1015,7 hPa 0,0 l/m 0 min 0 min 295 W/m 9,0 km/h (2 Bft) 97,87 %
17.06.2018 12:32 18,9 C 18,9 C 17,8 C 67 % 1015,7 hPa 0,0 l/m 0 min 0 min 381 W/m 15,8 km/h (3 Bft) 97,87 %
17.06.2018 12:34 18,8 C 19,4 C 17,8 C 68 % 1015,7 hPa 0,0 l/m 2 min 0 min 449 W/m 9,0 km/h (2 Bft) 97,87 %
17.06.2018 12:36 18,8 C 19,4 C 17,8 C 68 % 1015,8 hPa 0,0 l/m 2 min 0 min 502 W/m 13,5 km/h (3 Bft) 100,00 %
17.06.2018 12:38 18,9 C 20,0 C 17,8 C 68 % 1015,6 hPa 0,0 l/m 2 min 0 min 500 W/m 11,3 km/h (2 Bft) 97,87 %
17.06.2018 12:40 18,9 C 20,0 C 17,8 C 69 % 1015,7 hPa 0,0 l/m 2 min 0 min 458 W/m 9,0 km/h (2 Bft) 100,00 %
17.06.2018 12:42 18,9 C 20,0 C 17,8 C 69 % 1015,7 hPa 0,0 l/m 0 min 0 min 412 W/m 9,0 km/h (2 Bft) 97,87 %
17.06.2018 12:44 18,9 C 20,0 C 18,3 C 69 % 1015,7 hPa 0,0 l/m 0 min 0 min 404 W/m 6,8 km/h (2 Bft) 97,87 %
17.06.2018 12:46 18,9 C 20,0 C 17,8 C 69 % 1015,7 hPa 0,0 l/m 0 min 0 min 417 W/m 6,8 km/h (2 Bft) 97,87 %
17.06.2018 12:48 18,9 C 20,0 C 18,3 C 69 % 1015,7 hPa 0,0 l/m 0 min 0 min 428 W/m 6,8 km/h (2 Bft) 97,83 %
17.06.2018 12:50 19,0 C 20,6 C 18,3 C 70 % 1015,7 hPa 0,0 l/m 0 min 0 min 442 W/m 4,5 km/h (1 Bft) 97,87 %
17.06.2018 12:52 19,1 C 20,0 C 18,3 C 70 % 1015,7 hPa 0,0 l/m 0 min 0 min 436 W/m 9,0 km/h (2 Bft) 95,83 %
17.06.2018 12:54 19,1 C 20,0 C 18,3 C 69 % 1015,7 hPa 0,0 l/m 0 min 0 min 412 W/m 6,8 km/h (2 Bft) 100,00 %
17.06.2018 12:56 19,1 C 19,4 C 18,3 C 69 % 1015,7 hPa 0,0 l/m 0 min 0 min 357 W/m 9,0 km/h (2 Bft) 97,87 %
17.06.2018 12:58 19,1 C 18,9 C 17,8 C 68 % 1015,8 hPa 0,0 l/m 0 min 0 min 329 W/m 9,0 km/h (2 Bft) 100,00 %
17.06.2018 13:00 19,1 C 18,9 C 17,8 C 68 % 1015,7 hPa 0,0 l/m 0 min 0 min 334 W/m 6,8 km/h (2 Bft) 97,92 %
17.06.2018 13:02 19,1 C 18,9 C 17,8 C 68 % 1015,8 hPa 0,0 l/m 0 min 0 min 296 W/m 6,8 km/h (2 Bft) 97,83 %
17.06.2018 13:04 18,9 C 18,9 C 17,8 C 68 % 1015,8 hPa 0,0 l/m 0 min 0 min 241 W/m 9,0 km/h (2 Bft) 100,00 %
17.06.2018 13:06 18,9 C 18,3 C 17,2 C 68 % 1015,8 hPa 0,0 l/m 0 min 0 min 220 W/m 9,0 km/h (2 Bft) 97,92 %
17.06.2018 13:08 18,9 C 18,3 C 17,2 C 68 % 1015,9 hPa 0,0 l/m 0 min 0 min 182 W/m 9,0 km/h (2 Bft) 97,87 %
17.06.2018 13:10 18,8 C 18,3 C 17,2 C 68 % 1015,9 hPa 0,0 l/m 0 min 0 min 146 W/m 9,0 km/h (2 Bft) 97,87 %
17.06.2018 13:12 18,7 C 17,8 C 17,2 C 68 % 1015,9 hPa 0,0 l/m 0 min 0 min 138 W/m 6,8 km/h (2 Bft) 97,87 %
17.06.2018 13:14 18,6 C 17,8 C 17,2 C 69 % 1015,9 hPa 0,0 l/m 0 min 0 min 129 W/m 6,8 km/h (2 Bft) 95,65 %
17.06.2018 13:16 18,5 C 17,8 C 16,7 C 69 % 1016,1 hPa 0,0 l/m 0 min 0 min 131 W/m 15,8 km/h (3 Bft) 93,62 %
17.06.2018 13:18 18,4 C 17,8 C 16,7 C 69 % 1016,0 hPa 0,0 l/m 0 min 0 min 157 W/m 6,8 km/h (2 Bft) 93,62 %
17.06.2018 13:20 18,4 C 17,8 C 16,7 C 70 % 1015,9 hPa 0,0 l/m 0 min 0 min 168 W/m 6,8 km/h (2 Bft) 95,74 %
17.06.2018 13:22 18,3 C 17,8 C 16,7 C 70 % 1015,9 hPa 0,0 l/m 0 min 0 min 170 W/m 9,0 km/h (2 Bft) 93,62 %
17.06.2018 13:24 18,3 C 17,8 C 16,7 C 70 % 1015,9 hPa 0,0 l/m 0 min 0 min 187 W/m 4,5 km/h (1 Bft) 95,74 %
17.06.2018 13:26 18,2 C 18,3 C 17,2 C 71 % 1016,0 hPa 0,0 l/m 0 min 0 min 211 W/m 4,5 km/h (1 Bft) 95,65 %
17.06.2018 13:28 18,2 C 18,3 C 17,2 C 71 % 1016,1 hPa 0,0 l/m 0 min 0 min 237 W/m 9,0 km/h (2 Bft) 95,74 %
17.06.2018 13:30 18,2 C 18,3 C 17,2 C 71 % 1016,0 hPa 0,0 l/m 0 min 0 min 254 W/m 11,3 km/h (2 Bft) 93,62 %
17.06.2018 13:32 18,2 C 18,3 C 17,2 C 70 % 1016,1 hPa 0,0 l/m 0 min 0 min 247 W/m 9,0 km/h (2 Bft) 95,74 %
17.06.2018 13:34 18,1 C 18,3 C 17,2 C 70 % 1016,0 hPa 0,0 l/m 0 min 0 min 259 W/m 4,5 km/h (1 Bft) 95,74 %
17.06.2018 13:36 18,1 C 18,3 C 17,2 C 70 % 1016,0 hPa 0,0 l/m 0 min 0 min 267 W/m 6,8 km/h (2 Bft) 93,62 %
17.06.2018 13:38 18,1 C 18,3 C 17,2 C 71 % 1016,1 hPa 0,0 l/m 0 min 0 min 261 W/m 6,8 km/h (2 Bft) 95,74 %
17.06.2018 13:40 18,1 C 18,3 C 17,2 C 71 % 1016,0 hPa 0,0 l/m 0 min 0 min 237 W/m 6,8 km/h (2 Bft) 95,74 %
17.06.2018 13:42 18,1 C 18,3 C 17,2 C 71 % 1016,1 hPa 0,0 l/m 0 min 0 min 192 W/m 9,0 km/h (2 Bft) 97,87 %
17.06.2018 13:44 18,1 C 18,3 C 17,2 C 71 % 1016,1 hPa 0,0 l/m 0 min 0 min 164 W/m 4,5 km/h (1 Bft) 95,74 %
17.06.2018 13:46 18,1 C 18,3 C 17,2 C 71 % 1016,0 hPa 0,0 l/m 0 min 0 min 149 W/m 2,3 km/h (1 Bft) 95,65 %
17.06.2018 13:48 18,1 C 18,3 C 17,2 C 72 % 1016,1 hPa 0,0 l/m 0 min 0 min 162 W/m 6,8 km/h (2 Bft) 95,74 %
17.06.2018 13:50 18,1 C 17,8 C 17,2 C 71 % 1016,1 hPa 0,0 l/m 0 min 0 min 175 W/m 6,8 km/h (2 Bft) 95,74 %
17.06.2018 13:52 18,1 C 17,8 C 17,2 C 71 % 1016,1 hPa 0,0 l/m 0 min 0 min 184 W/m 6,8 km/h (2 Bft) 93,62 %
17.06.2018 13:54 18,1 C 17,8 C 16,7 C 71 % 1016,0 hPa 0,0 l/m 0 min 0 min 190 W/m 4,5 km/h (1 Bft) 95,74 %
17.06.2018 13:56 18,0 C 17,8 C 16,7 C 71 % 1016,0 hPa 0,0 l/m 0 min 0 min 198 W/m 6,8 km/h (2 Bft) 93,62 %
17.06.2018 13:58 18,0 C 17,8 C 16,7 C 71 % 1016,0 hPa 0,0 l/m 0 min 0 min 225 W/m 6,8 km/h (2 Bft) 95,65 %
17.06.2018 14:00 18,0 C 18,3 C 16,7 C 71 % 1016,1 hPa 0,0 l/m 0 min 0 min 250 W/m 6,8 km/h (2 Bft) 97,87 %
17.06.2018 14:02 18,0 C 18,3 C 16,7 C 71 % 1016,1 hPa 0,0 l/m 0 min 0 min 258 W/m 6,8 km/h (2 Bft) 95,74 %
17.06.2018 14:04 18,0 C 18,3 C 16,7 C 71 % 1016,1 hPa 0,0 l/m 0 min 0 min 256 W/m 6,8 km/h (2 Bft) 97,87 %
17.06.2018 14:06 18,0 C 18,3 C 16,7 C 71 % 1016,2 hPa 0,0 l/m 0 min 0 min 255 W/m 11,3 km/h (2 Bft) 100,00 %
17.06.2018 14:08 18,0 C 18,3 C 16,7 C 71 % 1016,3 hPa 0,0 l/m 0 min 0 min 256 W/m 6,8 km/h (2 Bft) 100,00 %
17.06.2018 14:10 18,0 C 18,3 C 16,7 C 70 % 1016,3 hPa 0,0 l/m 0 min 0 min 265 W/m 9,0 km/h (2 Bft) 100,00 %
17.06.2018 14:12 17,9 C 18,3 C 16,7 C 69 % 1016,3 hPa 0,0 l/m 0 min 0 min 284 W/m 13,5 km/h (3 Bft) 97,87 %
17.06.2018 14:14 17,9 C 18,3 C 17,2 C 70 % 1016,3 hPa 0,0 l/m 0 min 0 min 286 W/m 6,8 km/h (2 Bft) 100,00 %
17.06.2018 14:16 18,0 C 18,3 C 17,2 C 70 % 1016,4 hPa 0,0 l/m 0 min 0 min 271 W/m 6,8 km/h (2 Bft) 100,00 %
17.06.2018 14:18 18,0 C 18,3 C 17,2 C 70 % 1016,3 hPa 0,0 l/m 0 min 0 min 263 W/m 11,3 km/h (2 Bft) 100,00 %
17.06.2018 14:20 17,9 C 18,3 C 17,2 C 70 % 1016,3 hPa 0,0 l/m 0 min 0 min 264 W/m 6,8 km/h (2 Bft) 100,00 %
17.06.2018 14:22 17,9 C 18,3 C 17,2 C 69 % 1016,4 hPa 0,0 l/m 0 min 0 min 272 W/m 11,3 km/h (2 Bft) 100,00 %
17.06.2018 14:24 17,9 C 18,3 C 17,2 C 70 % 1016,3 hPa 0,0 l/m 0 min 0 min 280 W/m 6,8 km/h (2 Bft) 100,00 %
17.06.2018 14:26 18,0 C 18,3 C 17,2 C 70 % 1016,3 hPa 0,0 l/m 0 min 0 min 292 W/m 6,8 km/h (2 Bft) 100,00 %
17.06.2018 14:28 17,9 C 18,3 C 17,2 C 69 % 1016,3 hPa 0,0 l/m 0 min 0 min 301 W/m 18,0 km/h (3 Bft) 100,00 %
17.06.2018 14:30 17,9 C 18,3 C 17,2 C 69 % 1016,4 hPa 0,0 l/m 0 min 0 min 309 W/m 11,3 km/h (2 Bft) 100,00 %
17.06.2018 14:32 17,9 C 18,3 C 17,2 C 69 % 1016,4 hPa 0,0 l/m 0 min 0 min 313 W/m 11,3 km/h (2 Bft) 97,87 %
17.06.2018 14:34 17,9 C 18,3 C 17,2 C 69 % 1016,4 hPa 0,0 l/m 0 min 0 min 311 W/m 6,8 km/h (2 Bft) 100,00 %
17.06.2018 14:36 18,0 C 18,9 C 17,2 C 70 % 1016,3 hPa 0,0 l/m 0 min 0 min 310 W/m 4,5 km/h (1 Bft) 100,00 %
17.06.2018 14:38 18,0 C 18,9 C 17,2 C 70 % 1016,3 hPa 0,0 l/m 0 min 0 min 320 W/m 9,0 km/h (2 Bft) 100,00 %
17.06.2018 14:40 18,0 C 18,9 C 17,2 C 70 % 1016,3 hPa 0,0 l/m 0 min 0 min 341 W/m 9,0 km/h (2 Bft) 100,00 %
17.06.2018 14:42 18,1 C 18,9 C 17,2 C 69 % 1016,4 hPa 0,0 l/m 0 min 0 min 359 W/m 9,0 km/h (2 Bft) 100,00 %
17.06.2018 14:44 18,1 C 18,9 C 17,2 C 69 % 1016,4 hPa 0,0 l/m 0 min 0 min 361 W/m 6,8 km/h (2 Bft) 100,00 %
17.06.2018 14:46 18,1 C 18,9 C 17,2 C 70 % 1016,3 hPa 0,0 l/m 0 min 0 min 357 W/m 6,8 km/h (2 Bft) 97,87 %
17.06.2018 14:48 18,1 C 18,9 C 17,2 C 70 % 1016,4 hPa 0,0 l/m 0 min 0 min 365 W/m 6,8 km/h (2 Bft) 100,00 %
17.06.2018 14:50 18,2 C 18,9 C 17,2 C 69 % 1016,4 hPa 0,0 l/m 0 min 0 min 381 W/m 9,0 km/h (2 Bft) 97,87 %
17.06.2018 14:52 18,2 C 18,9 C 17,2 C 68 % 1016,4 hPa 0,0 l/m 0 min 0 min 388 W/m 11,3 km/h (2 Bft) 97,87 %
17.06.2018 14:54 18,2 C 18,9 C 17,2 C 67 % 1016,4 hPa 0,0 l/m 0 min 0 min 388 W/m 11,3 km/h (2 Bft) 97,87 %
17.06.2018 14:56 18,2 C 18,9 C 17,2 C 68 % 1016,4 hPa 0,0 l/m 0 min 0 min 389 W/m 9,0 km/h (2 Bft) 97,83 %
17.06.2018 14:58 18,2 C 18,9 C 17,2 C 67 % 1016,4 hPa 0,0 l/m 0 min 0 min 407 W/m 11,3 km/h (2 Bft) 97,87 %
17.06.2018 15:00 18,2 C 18,9 C 17,2 C 67 % 1016,4 hPa 0,0 l/m 2 min 0 min 452 W/m 18,0 km/h (3 Bft) 97,87 %
17.06.2018 15:02 18,2 C 19,4 C 17,2 C 68 % 1016,4 hPa 0,0 l/m 2 min 0 min 522 W/m 9,0 km/h (2 Bft) 97,87 %
17.06.2018 15:04 18,3 C 19,4 C 17,2 C 68 % 1016,4 hPa 0,0 l/m 2 min 0 min 608 W/m 4,5 km/h (1 Bft) 95,74 %
17.06.2018 15:06 18,3 C 20,0 C 17,8 C 68 % 1016,3 hPa 0,0 l/m 2 min 0 min 631 W/m 9,0 km/h (2 Bft) 95,74 %
17.06.2018 15:08 18,4 C 20,6 C 17,8 C 69 % 1016,2 hPa 0,0 l/m 2 min 0 min 680 W/m 6,8 km/h (2 Bft) 97,83 %
17.06.2018 15:10 18,5 C 20,6 C 17,8 C 69 % 1016,1 hPa 0,0 l/m 2 min 0 min 736 W/m 11,3 km/h (2 Bft) 95,74 %
17.06.2018 15:12 18,6 C 20,0 C 17,8 C 68 % 1016,2 hPa 0,0 l/m 2 min 0 min 552 W/m 11,3 km/h (2 Bft) 95,74 %
17.06.2018 15:14 18,7 C 20,6 C 17,8 C 68 % 1016,2 hPa 0,0 l/m 2 min 0 min 606 W/m 4,5 km/h (1 Bft) 97,87 %
17.06.2018 15:16 18,8 C 20,6 C 18,3 C 68 % 1016,3 hPa 0,0 l/m 2 min 0 min 685 W/m 11,3 km/h (2 Bft) 97,87 %
17.06.2018 15:18 18,9 C 20,6 C 18,3 C 68 % 1016,2 hPa 0,0 l/m 2 min 0 min 685 W/m 9,0 km/h (2 Bft) 97,87 %
17.06.2018 15:20 18,9 C 20,6 C 18,3 C 67 % 1016,3 hPa 0,0 l/m 2 min 0 min 641 W/m 9,0 km/h (2 Bft) 97,83 %
17.06.2018 15:22 19,0 C 20,6 C 18,3 C 68 % 1016,4 hPa 0,0 l/m 2 min 0 min 564 W/m 6,8 km/h (2 Bft) 97,87 %
17.06.2018 15:24 19,1 C 20,6 C 18,3 C 67 % 1016,4 hPa 0,0 l/m 2 min 0 min 452 W/m 11,3 km/h (2 Bft) 97,87 %
17.06.2018 15:26 19,1 C 20,0 C 18,3 C 66 % 1016,4 hPa 0,0 l/m 2 min 0 min 434 W/m 13,5 km/h (3 Bft) 97,87 %
17.06.2018 15:28 19,1 C 20,0 C 17,8 C 65 % 1016,4 hPa 0,0 l/m 2 min 0 min 438 W/m 9,0 km/h (2 Bft) 97,87 %
17.06.2018 15:30 19,1 C 20,0 C 17,8 C 65 % 1016,4 hPa 0,0 l/m 0 min 0 min 377 W/m 11,3 km/h (2 Bft) 97,87 %
17.06.2018 15:32 19,1 C 19,4 C 17,8 C 64 % 1016,4 hPa 0,0 l/m 2 min 0 min 418 W/m 11,3 km/h (2 Bft) 97,87 %
17.06.2018 15:34 19,1 C 20,0 C 17,8 C 65 % 1016,4 hPa 0,0 l/m 2 min 0 min 477 W/m 13,5 km/h (3 Bft) 95,74 %
17.06.2018 15:36 19,1 C 19,4 C 17,8 C 64 % 1016,5 hPa 0,0 l/m 2 min 0 min 482 W/m 6,8 km/h (2 Bft) 97,87 %
17.06.2018 15:38 19,1 C 20,0 C 17,8 C 65 % 1016,5 hPa 0,0 l/m 2 min 0 min 438 W/m 6,8 km/h (2 Bft) 95,74 %
17.06.2018 15:40 19,1 C 20,0 C 17,8 C 65 % 1016,5 hPa 0,0 l/m 0 min 0 min 379 W/m 9,0 km/h (2 Bft) 97,87 %
17.06.2018 15:42 19,1 C 19,4 C 17,8 C 64 % 1016,4 hPa 0,0 l/m 0 min 0 min 355 W/m 6,8 km/h (2 Bft) 97,87 %
17.06.2018 15:44 19,1 C 19,4 C 17,8 C 65 % 1016,5 hPa 0,0 l/m 0 min 0 min 335 W/m 6,8 km/h (2 Bft) 100,00 %
17.06.2018 15:46 19,1 C 19,4 C 17,8 C 64 % 1016,5 hPa 0,0 l/m 0 min 0 min 331 W/m 6,8 km/h (2 Bft) 100,00 %
17.06.2018 15:48 19,1 C 19,4 C 17,8 C 65 % 1016,4 hPa 0,0 l/m 0 min 0 min 349 W/m 6,8 km/h (2 Bft) 100,00 %
17.06.2018 15:50 19,1 C 19,4 C 17,8 C 65 % 1016,6 hPa 0,0 l/m 0 min 0 min 339 W/m 6,8 km/h (2 Bft) 97,87 %
17.06.2018 15:52 19,1 C 19,4 C 17,8 C 64 % 1016,6 hPa 0,0 l/m 0 min 0 min 339 W/m 6,8 km/h (2 Bft) 95,74 %
17.06.2018 15:54 19,1 C 19,4 C 17,8 C 64 % 1016,6 hPa 0,0 l/m 0 min 0 min 369 W/m 4,5 km/h (1 Bft) 95,74 %
17.06.2018 15:56 19,1 C 20,0 C 17,8 C 65 % 1016,5 hPa 0,0 l/m 0 min 0 min 390 W/m 6,8 km/h (2 Bft) 97,83 %
17.06.2018 15:58 19,1 C 19,4 C 17,8 C 64 % 1016,5 hPa 0,0 l/m 0 min 0 min 393 W/m 6,8 km/h (2 Bft) 97,87 %
17.06.2018 16:00 19,0 C 19,4 C 17,8 C 64 % 1016,4 hPa 0,0 l/m 0 min 0 min 385 W/m 4,5 km/h (1 Bft) 95,74 %
17.06.2018 16:02 19,0 C 19,4 C 17,8 C 65 % 1016,5 hPa 0,0 l/m 0 min 0 min 383 W/m 9,0 km/h (2 Bft) 95,74 %
17.06.2018 16:04 19,0 C 19,4 C 18,3 C 65 % 1016,6 hPa 0,0 l/m 0 min 0 min 371 W/m 9,0 km/h (2 Bft) 95,74 %
17.06.2018 16:06 19,0 C 20,0 C 17,8 C 65 % 1016,5 hPa 0,0 l/m 0 min 0 min 360 W/m 6,8 km/h (2 Bft) 97,83 %
17.06.2018 16:08 19,1 C 19,4 C 18,3 C 65 % 1016,6 hPa 0,0 l/m 0 min 0 min 353 W/m 9,0 km/h (2 Bft) 95,74 %
17.06.2018 16:10 19,0 C 19,4 C 17,8 C 64 % 1016,6 hPa 0,0 l/m 0 min 0 min 350 W/m 6,8 km/h (2 Bft) 97,87 %
17.06.2018 16:12 19,0 C 19,4 C 17,8 C 65 % 1016,7 hPa 0,0 l/m 0 min 0 min 354 W/m 11,3 km/h (2 Bft) 93,62 %
17.06.2018 16:14 19,0 C 19,4 C 17,8 C 65 % 1016,7 hPa 0,0 l/m 0 min 0 min 362 W/m 9,0 km/h (2 Bft) 95,74 %
17.06.2018 16:16 19,0 C 19,4 C 17,8 C 65 % 1016,6 hPa 0,0 l/m 0 min 0 min 367 W/m 6,8 km/h (2 Bft) 91,49 %
17.06.2018 16:18 19,0 C 20,0 C 17,8 C 65 % 1016,5 hPa 0,0 l/m 0 min 0 min 358 W/m 4,5 km/h (1 Bft) 97,83 %
17.06.2018 16:20 19,0 C 19,4 C 17,8 C 65 % 1016,6 hPa 0,0 l/m 0 min 0 min 351 W/m 6,8 km/h (2 Bft) 95,74 %
17.06.2018 16:22 19,0 C 19,4 C 17,8 C 64 % 1016,6 hPa 0,0 l/m 0 min 0 min 338 W/m 4,5 km/h (1 Bft) 97,87 %
17.06.2018 16:24 19,0 C 19,4 C 17,8 C 64 % 1016,6 hPa 0,0 l/m 0 min 0 min 316 W/m 4,5 km/h (1 Bft) 95,74 %
17.06.2018 16:26 19,0 C 19,4 C 17,8 C 64 % 1016,6 hPa 0,0 l/m 0 min 0 min 285 W/m 13,5 km/h (3 Bft) 95,74 %
17.06.2018 16:28 19,0 C 19,4 C 17,8 C 65 % 1016,7 hPa 0,0 l/m 0 min 0 min 267 W/m 6,8 km/h (2 Bft) 95,74 %
17.06.2018 16:30 18,9 C 18,9 C 17,8 C 64 % 1016,7 hPa 0,0 l/m 0 min 0 min 248 W/m 11,3 km/h (2 Bft) 97,83 %
17.06.2018 16:32 18,9 C 18,9 C 17,8 C 63 % 1016,7 hPa 0,0 l/m 0 min 0 min 240 W/m 11,3 km/h (2 Bft) 98,08 %
17.06.2018 16:34 18,9 C 18,9 C 17,8 C 64 % 1016,6 hPa 0,0 l/m 0 min 0 min 230 W/m 4,5 km/h (1 Bft) 97,78 %
17.06.2018 16:36 18,9 C 18,9 C 17,8 C 64 % 1016,6 hPa 0,0 l/m 0 min 0 min 224 W/m 6,8 km/h (2 Bft) 95,74 %
17.06.2018 16:38 18,9 C 18,9 C 17,8 C 64 % 1016,6 hPa 0,0 l/m 0 min 0 min 220 W/m 6,8 km/h (2 Bft) 97,87 %
17.06.2018 16:40 18,8 C 18,9 C 17,8 C 65 % 1016,6 hPa 0,0 l/m 0 min 0 min 224 W/m 6,8 km/h (2 Bft) 97,83 %
17.06.2018 16:42 18,8 C 18,9 C 17,8 C 64 % 1016,7 hPa 0,0 l/m 0 min 0 min 236 W/m 6,8 km/h (2 Bft) 97,87 %
17.06.2018 16:44 18,8 C 18,9 C 17,8 C 65 % 1016,7 hPa 0,0 l/m 0 min 0 min 247 W/m 6,8 km/h (2 Bft) 95,74 %
17.06.2018 16:46 18,8 C 18,9 C 17,8 C 65 % 1016,7 hPa 0,0 l/m 0 min 0 min 252 W/m 6,8 km/h (2 Bft) 97,87 %
17.06.2018 16:48 18,8 C 18,9 C 17,8 C 65 % 1016,8 hPa 0,0 l/m 0 min 0 min 263 W/m 9,0 km/h (2 Bft) 97,87 %
17.06.2018 16:50 18,8 C 18,9 C 17,8 C 65 % 1016,7 hPa 0,0 l/m 0 min 0 min 281 W/m 6,8 km/h (2 Bft) 97,87 %
17.06.2018 16:52 18,8 C 18,9 C 17,8 C 65 % 1016,7 hPa 0,0 l/m 0 min 0 min 285 W/m 2,3 km/h (1 Bft) 97,83 %
17.06.2018 16:54 18,8 C 19,4 C 17,8 C 65 % 1016,7 hPa 0,0 l/m 0 min 0 min 278 W/m 4,5 km/h (1 Bft) 97,87 %
17.06.2018 16:56 18,8 C 18,9 C 17,8 C 65 % 1016,7 hPa 0,0 l/m 0 min 0 min 265 W/m 6,8 km/h (2 Bft) 97,87 %
17.06.2018 16:58 18,8 C 18,9 C 17,8 C 65 % 1016,8 hPa 0,0 l/m 0 min 0 min 254 W/m 4,5 km/h (1 Bft) 97,87 %
17.06.2018 17:00 18,8 C 19,4 C 17,8 C 65 % 1016,8 hPa 0,0 l/m 0 min 0 min 247 W/m 4,5 km/h (1 Bft) 97,87 %
17.06.2018 17:02 18,9 C 19,4 C 18,3 C 65 % 1016,7 hPa 0,0 l/m 0 min 0 min 241 W/m 11,3 km/h (2 Bft) 97,87 %
17.06.2018 17:04 18,9 C 19,4 C 18,3 C 66 % 1016,7 hPa 0,0 l/m 0 min 0 min 236 W/m 6,8 km/h (2 Bft) 97,83 %
17.06.2018 17:06 18,9 C 18,9 C 17,8 C 64 % 1016,7 hPa 0,0 l/m 0 min 2 min 232 W/m 6,8 km/h (2 Bft) 97,87 %
17.06.2018 17:08 19,0 C 18,9 C 17,8 C 65 % 1016,6 hPa 0,0 l/m 0 min 2 min 236 W/m 6,8 km/h (2 Bft) 97,87 %
17.06.2018 17:10 19,0 C 18,9 C 17,8 C 65 % 1016,6 hPa 0,0 l/m 0 min 0 min 242 W/m 11,3 km/h (2 Bft) 97,87 %
17.06.2018 17:12 19,0 C 18,9 C 17,8 C 64 % 1016,7 hPa 0,0 l/m 0 min 0 min 239 W/m 9,0 km/h (2 Bft) 95,74 %
17.06.2018 17:14 19,0 C 18,9 C 17,8 C 65 % 1016,7 hPa 0,0 l/m 0 min 0 min 237 W/m 6,8 km/h (2 Bft) 97,87 %
17.06.2018 17:16 19,0 C 19,4 C 18,3 C 64 % 1016,7 hPa 0,0 l/m 0 min 0 min 240 W/m 9,0 km/h (2 Bft) 93,48 %
17.06.2018 17:18 19,0 C 18,9 C 18,3 C 64 % 1016,7 hPa 0,0 l/m 0 min 0 min 250 W/m 6,8 km/h (2 Bft) 97,87 %
17.06.2018 17:20 19,0 C 19,4 C 18,3 C 64 % 1016,6 hPa 0,0 l/m 0 min 0 min 263 W/m 4,5 km/h (1 Bft) 97,87 %
17.06.2018 17:22 19,1 C 19,4 C 18,3 C 64 % 1016,6 hPa 0,0 l/m 0 min 0 min 267 W/m 6,8 km/h (2 Bft) 97,87 %
17.06.2018 17:24 19,1 C 19,4 C 17,8 C 64 % 1016,7 hPa 0,0 l/m 0 min 0 min 266 W/m 6,8 km/h (2 Bft) 97,87 %
17.06.2018 17:26 19,1 C 18,9 C 17,8 C 63 % 1016,7 hPa 0,0 l/m 0 min 0 min 260 W/m 6,8 km/h (2 Bft) 95,74 %
17.06.2018 17:28 19,1 C 18,9 C 17,8 C 64 % 1016,7 hPa 0,0 l/m 0 min 0 min 251 W/m 6,8 km/h (2 Bft) 100,00 %
17.06.2018 17:30 19,0 C 18,9 C 17,8 C 63 % 1016,7 hPa 0,0 l/m 0 min 0 min 239 W/m 9,0 km/h (2 Bft) 100,00 %
17.06.2018 17:32 19,0 C 18,9 C 17,8 C 63 % 1016,7 hPa 0,0 l/m 0 min 0 min 230 W/m 11,3 km/h (2 Bft) 100,00 %
17.06.2018 17:34 19,0 C 18,9 C 17,8 C 64 % 1016,7 hPa 0,0 l/m 0 min 0 min 224 W/m 6,8 km/h (2 Bft) 100,00 %
17.06.2018 17:36 18,9 C 18,9 C 17,8 C 64 % 1016,7 hPa 0,0 l/m 0 min 0 min 223 W/m 4,5 km/h (1 Bft) 100,00 %
17.06.2018 17:38 18,9 C 18,9 C 17,8 C 64 % 1016,8 hPa 0,0 l/m 0 min 0 min 229 W/m 4,5 km/h (1 Bft) 100,00 %
17.06.2018 17:40 18,9 C 18,9 C 17,8 C 64 % 1016,6 hPa 0,0 l/m 0 min 0 min 247 W/m 9,0 km/h (2 Bft) 100,00 %
17.06.2018 17:42 18,9 C 18,9 C 17,8 C 64 % 1016,7 hPa 0,0 l/m 0 min 0 min 270 W/m 4,5 km/h (1 Bft) 100,00 %
17.06.2018 17:44 18,9 C 18,9 C 17,8 C 65 % 1016,6 hPa 0,0 l/m 0 min 0 min 285 W/m 6,8 km/h (2 Bft) 100,00 %
17.06.2018 17:46 18,9 C 18,9 C 17,8 C 65 % 1016,7 hPa 0,0 l/m 0 min 0 min 288 W/m 11,3 km/h (2 Bft) 100,00 %
17.06.2018 17:48 18,9 C 18,9 C 17,8 C 66 % 1016,6 hPa 0,0 l/m 0 min 0 min 276 W/m 9,0 km/h (2 Bft) 100,00 %
17.06.2018 17:50 18,9 C 18,9 C 17,8 C 66 % 1016,6 hPa 0,0 l/m 0 min 2 min 260 W/m 6,8 km/h (2 Bft) 100,00 %
17.06.2018 17:52 18,9 C 18,9 C 17,8 C 65 % 1016,6 hPa 0,0 l/m 0 min 0 min 251 W/m 9,0 km/h (2 Bft) 100,00 %
17.06.2018 17:54 18,9 C 18,9 C 17,8 C 66 % 1016,6 hPa 0,0 l/m 0 min 2 min 252 W/m 6,8 km/h (2 Bft) 97,87 %
17.06.2018 17:56 18,9 C 18,9 C 17,2 C 66 % 1016,6 hPa 0,0 l/m 0 min 2 min 258 W/m 6,8 km/h (2 Bft) 97,87 %
17.06.2018 17:58 18,9 C 18,9 C 17,8 C 67 % 1016,7 hPa 0,0 l/m 0 min 0 min 269 W/m 4,5 km/h (1 Bft) 95,74 %
17.06.2018 18:00 18,9 C 18,9 C 17,8 C 67 % 1016,6 hPa 0,0 l/m 0 min 2 min 274 W/m 4,5 km/h (1 Bft) 97,87 %
17.06.2018 18:02 18,9 C 18,9 C 17,8 C 68 % 1016,6 hPa 0,0 l/m 2 min 0 min 288 W/m 11,3 km/h (2 Bft) 97,83 %
17.06.2018 18:04 18,9 C 18,9 C 17,8 C 67 % 1016,7 hPa 0,0 l/m 2 min 2 min 307 W/m 6,8 km/h (2 Bft) 97,87 %
17.06.2018 18:07 18,9 C 18,9 C 17,8 C 66 % 1016,6 hPa 0,0 l/m 3 min 0 min 315 W/m 9,0 km/h (2 Bft) 97,87 %
17.06.2018 18:08 18,9 C 19,4 C 17,8 C 66 % 1016,6 hPa 0,0 l/m 1 min 0 min 313 W/m 11,3 km/h (2 Bft) 97,73 %
17.06.2018 18:10 19,0 C 19,4 C 17,8 C 66 % 1016,7 hPa 0,0 l/m 2 min 0 min 307 W/m 6,8 km/h (2 Bft) 95,74 %
17.06.2018 18:12 19,0 C 18,9 C 17,8 C 65 % 1016,8 hPa 0,0 l/m 2 min 0 min 300 W/m 9,0 km/h (2 Bft) 97,87 %
17.06.2018 18:14 19,0 C 18,9 C 17,8 C 65 % 1016,7 hPa 0,0 l/m 2 min 0 min 284 W/m 9,0 km/h (2 Bft) 97,87 %
17.06.2018 18:16 19,0 C 18,9 C 18,3 C 65 % 1016,6 hPa 0,0 l/m 0 min 0 min 259 W/m 4,5 km/h (1 Bft) 95,74 %
17.06.2018 18:18 19,0 C 19,4 C 18,3 C 66 % 1016,6 hPa 0,0 l/m 0 min 0 min 240 W/m 4,5 km/h (1 Bft) 97,83 %
17.06.2018 18:20 19,0 C 18,9 C 18,3 C 66 % 1016,6 hPa 0,0 l/m 0 min 0 min 219 W/m 6,8 km/h (2 Bft) 95,74 %
17.06.2018 18:22 19,0 C 18,9 C 17,8 C 65 % 1016,7 hPa 0,0 l/m 0 min 0 min 201 W/m 11,3 km/h (2 Bft) 93,75 %
17.06.2018 18:24 18,9 C 18,9 C 17,8 C 66 % 1016,7 hPa 0,0 l/m 0 min 0 min 195 W/m 13,5 km/h (3 Bft) 95,74 %
17.06.2018 18:26 18,9 C 18,9 C 17,8 C 66 % 1016,8 hPa 0,0 l/m 0 min 0 min 203 W/m 6,8 km/h (2 Bft) 95,74 %
17.06.2018 18:28 19,0 C 18,9 C 17,8 C 66 % 1016,8 hPa 0,0 l/m 0 min 0 min 201 W/m 11,3 km/h (2 Bft) 95,74 %
17.06.2018 18:30 18,9 C 18,9 C 17,8 C 66 % 1016,7 hPa 0,0 l/m 0 min 0 min 196 W/m 9,0 km/h (2 Bft) 91,30 %
17.06.2018 18:32 18,9 C 18,9 C 17,8 C 66 % 1016,8 hPa 0,0 l/m 0 min 0 min 199 W/m 6,8 km/h (2 Bft) 95,74 %
17.06.2018 18:34 18,9 C 18,3 C 17,8 C 66 % 1016,9 hPa 0,0 l/m 0 min 0 min 200 W/m 13,5 km/h (3 Bft) 95,74 %
17.06.2018 18:36 18,9 C 18,9 C 17,8 C 66 % 1016,8 hPa 0,0 l/m 0 min 0 min 202 W/m 13,5 km/h (3 Bft) 95,74 %
17.06.2018 18:38 18,9 C 18,3 C 17,8 C 66 % 1016,8 hPa 0,0 l/m 0 min 0 min 212 W/m 9,0 km/h (2 Bft) 95,74 %
17.06.2018 18:40 18,8 C 18,9 C 17,8 C 66 % 1016,8 hPa 0,0 l/m 0 min 0 min 210 W/m 6,8 km/h (2 Bft) 95,74 %
17.06.2018 18:42 18,8 C 18,9 C 17,8 C 67 % 1016,8 hPa 0,0 l/m 0 min 0 min 204 W/m 6,8 km/h (2 Bft) 95,65 %
17.06.2018 18:44 18,8 C 18,9 C 17,8 C 67 % 1016,8 hPa 0,0 l/m 0 min 0 min 194 W/m 6,8 km/h (2 Bft) 95,74 %
17.06.2018 18:46 18,9 C 18,9 C 17,8 C 67 % 1016,8 hPa 0,0 l/m 0 min 0 min 213 W/m 6,8 km/h (2 Bft) 95,74 %
17.06.2018 18:48 18,8 C 18,9 C 17,8 C 67 % 1016,8 hPa 0,0 l/m 2 min 0 min 241 W/m 13,5 km/h (3 Bft) 93,62 %
17.06.2018 18:50 18,9 C 18,9 C 17,8 C 67 % 1016,8 hPa 0,0 l/m 2 min 0 min 249 W/m 6,8 km/h (2 Bft) 97,87 %
17.06.2018 18:52 18,9 C 18,9 C 17,8 C 67 % 1016,8 hPa 0,0 l/m 2 min 0 min 271 W/m 4,5 km/h (1 Bft) 97,87 %
17.06.2018 18:54 18,9 C 18,9 C 17,8 C 67 % 1016,9 hPa 0,0 l/m 2 min 0 min 364 W/m 6,8 km/h (2 Bft) 97,83 %
17.06.2018 18:56 18,9 C 19,4 C 18,3 C 66 % 1016,9 hPa 0,0 l/m 2 min 0 min 362 W/m 9,0 km/h (2 Bft) 95,74 %
17.06.2018 18:58 18,9 C 19,4 C 18,3 C 66 % 1016,9 hPa 0,0 l/m 2 min 0 min 333 W/m 11,3 km/h (2 Bft) 95,74 %
17.06.2018 19:00 18,9 C 19,4 C 17,8 C 66 % 1016,9 hPa 0,0 l/m 2 min 0 min 343 W/m 6,8 km/h (2 Bft) 95,74 %
17.06.2018 19:02 18,9 C 19,4 C 18,3 C 65 % 1017,0 hPa 0,0 l/m 2 min 0 min 445 W/m 9,0 km/h (2 Bft) 97,87 %
17.06.2018 19:04 18,9 C 20,0 C 18,3 C 66 % 1017,0 hPa 0,0 l/m 2 min 0 min 480 W/m 6,8 km/h (2 Bft) 95,74 %
17.06.2018 19:06 19,0 C 19,4 C 18,3 C 66 % 1017,0 hPa 0,0 l/m 2 min 0 min 352 W/m 6,8 km/h (2 Bft) 93,62 %
17.06.2018 19:08 19,1 C 19,4 C 18,3 C 66 % 1016,9 hPa 0,0 l/m 2 min 0 min 243 W/m 11,3 km/h (2 Bft) 97,87 %
17.06.2018 19:10 19,1 C 19,4 C 17,8 C 65 % 1017,0 hPa 0,0 l/m 2 min 0 min 229 W/m 6,8 km/h (2 Bft) 100,00 %
17.06.2018 19:12 19,1 C 18,9 C 17,8 C 65 % 1017,0 hPa 0,0 l/m 2 min 0 min 215 W/m 9,0 km/h (2 Bft) 100,00 %
17.06.2018 19:14 19,1 C 18,9 C 17,8 C 66 % 1017,0 hPa 0,0 l/m 2 min 0 min 197 W/m 11,3 km/h (2 Bft) 100,00 %
17.06.2018 19:16 19,1 C 18,9 C 17,8 C 65 % 1017,1 hPa 0,0 l/m 0 min 0 min 177 W/m 11,3 km/h (2 Bft) 100,00 %
17.06.2018 19:18 19,0 C 18,3 C 17,8 C 65 % 1017,1 hPa 0,0 l/m 0 min 0 min 164 W/m 9,0 km/h (2 Bft) 97,87 %
17.06.2018 19:20 19,0 C 18,9 C 17,8 C 65 % 1017,0 hPa 0,0 l/m 0 min 0 min 162 W/m 6,8 km/h (2 Bft) 100,00 %
17.06.2018 19:22 18,9 C 18,3 C 17,8 C 65 % 1017,1 hPa 0,0 l/m 0 min 0 min 159 W/m 4,5 km/h (1 Bft) 100,00 %
17.06.2018 19:24 18,9 C 18,3 C 17,8 C 65 % 1017,1 hPa 0,0 l/m 0 min 0 min 151 W/m 11,3 km/h (2 Bft) 100,00 %
17.06.2018 19:26 18,9 C 18,3 C 17,8 C 65 % 1017,1 hPa 0,0 l/m 0 min 0 min 146 W/m 6,8 km/h (2 Bft) 100,00 %
17.06.2018 19:28 18,8 C 18,3 C 17,8 C 65 % 1017,1 hPa 0,0 l/m 0 min 0 min 149 W/m 6,8 km/h (2 Bft) 100,00 %
17.06.2018 19:30 18,8 C 18,3 C 17,8 C 65 % 1017,1 hPa 0,0 l/m 0 min 0 min 149 W/m 6,8 km/h (2 Bft) 100,00 %
17.06.2018 19:32 18,8 C 18,3 C 17,8 C 65 % 1017,1 hPa 0,0 l/m 0 min 0 min 148 W/m 6,8 km/h (2 Bft) 95,74 %
17.06.2018 19:34 18,8 C 18,3 C 17,8 C 66 % 1017,0 hPa 0,0 l/m 0 min 0 min 138 W/m 4,5 km/h (1 Bft) 100,00 %
17.06.2018 19:36 18,8 C 18,3 C 17,8 C 65 % 1017,1 hPa 0,0 l/m 0 min 0 min 114 W/m 6,8 km/h (2 Bft) 97,87 %
17.06.2018 19:38 18,8 C 18,3 C 17,8 C 65 % 1017,0 hPa 0,0 l/m 0 min 0 min 94 W/m 6,8 km/h (2 Bft) 97,87 %
17.06.2018 19:40 18,7 C 18,3 C 17,8 C 65 % 1017,1 hPa 0,0 l/m 0 min 0 min 98 W/m 4,5 km/h (1 Bft) 97,83 %
17.06.2018 19:42 18,7 C 18,3 C 17,8 C 65 % 1017,0 hPa 0,0 l/m 0 min 0 min 132 W/m 9,0 km/h (2 Bft) 97,87 %
17.06.2018 19:44 18,7 C 18,3 C 17,8 C 65 % 1017,0 hPa 0,0 l/m 2 min 0 min 173 W/m 2,3 km/h (1 Bft) 100,00 %
17.06.2018 19:46 18,7 C 18,3 C 17,2 C 66 % 1017,0 hPa 0,0 l/m 2 min 0 min 275 W/m 2,3 km/h (1 Bft) 97,87 %
17.06.2018 19:48 18,7 C 18,3 C 17,8 C 66 % 1017,2 hPa 0,0 l/m 0 min 0 min 139 W/m 2,3 km/h (1 Bft) 97,87 %
17.06.2018 19:50 18,7 C 18,3 C 17,8 C 66 % 1017,2 hPa 0,0 l/m 0 min 0 min 117 W/m 2,3 km/h (1 Bft) 97,87 %
17.06.2018 19:52 18,7 C 18,3 C 17,8 C 66 % 1017,3 hPa 0,0 l/m 0 min 0 min 126 W/m 6,8 km/h (2 Bft) 97,83 %
17.06.2018 19:54 18,7 C 18,3 C 17,8 C 66 % 1017,3 hPa 0,0 l/m 0 min 0 min 135 W/m 4,5 km/h (1 Bft) 100,00 %
17.06.2018 19:56 18,7 C 18,3 C 17,8 C 66 % 1017,3 hPa 0,0 l/m 2 min 0 min 141 W/m 4,5 km/h (1 Bft) 97,87 %
17.06.2018 19:58 18,7 C 18,3 C 17,8 C 66 % 1017,1 hPa 0,0 l/m 2 min 0 min 148 W/m 4,5 km/h (1 Bft) 97,87 %
17.06.2018 20:00 18,7 C 18,3 C 17,8 C 66 % 1017,1 hPa 0,0 l/m 2 min 0 min 136 W/m 4,5 km/h (1 Bft) 97,87 %
17.06.2018 20:02 18,7 C 18,3 C 17,8 C 66 % 1017,1 hPa 0,0 l/m 2 min 0 min 125 W/m 4,5 km/h (1 Bft) 97,87 %
17.06.2018 20:04 18,7 C 18,3 C 17,8 C 66 % 1017,1 hPa 0,0 l/m 2 min 0 min 128 W/m 4,5 km/h (1 Bft) 95,65 %
17.06.2018 20:06 18,7 C 18,3 C 17,8 C 66 % 1017,2 hPa 0,0 l/m 2 min 0 min 138 W/m 4,5 km/h (1 Bft) 97,87 %
17.06.2018 20:08 18,7 C 18,3 C 17,8 C 67 % 1017,1 hPa 0,0 l/m 2 min 0 min 143 W/m 6,8 km/h (2 Bft) 97,87 %
17.06.2018 20:10 18,7 C 18,3 C 17,8 C 66 % 1017,3 hPa 0,0 l/m 2 min 0 min 151 W/m 6,8 km/h (2 Bft) 97,87 %
17.06.2018 20:12 18,7 C 18,3 C 17,8 C 66 % 1017,2 hPa 0,0 l/m 2 min 0 min 138 W/m 6,8 km/h (2 Bft) 97,87 %
17.06.2018 20:14 18,7 C 18,3 C 17,8 C 66 % 1017,1 hPa 0,0 l/m 0 min 0 min 105 W/m 13,5 km/h (3 Bft) 97,87 %
17.06.2018 20:16 18,7 C 18,3 C 17,8 C 66 % 1017,0 hPa 0,0 l/m 0 min 0 min 77 W/m 4,5 km/h (1 Bft) 97,83 %
17.06.2018 20:18 18,7 C 17,8 C 17,2 C 66 % 1017,1 hPa 0,0 l/m 0 min 0 min 62 W/m 11,3 km/h (2 Bft) 97,87 %
17.06.2018 20:20 18,6 C 17,8 C 17,2 C 66 % 1017,2 hPa 0,0 l/m 0 min 0 min 48 W/m 6,8 km/h (2 Bft) 97,87 %
17.06.2018 20:22 18,6 C 17,8 C 17,2 C 66 % 1017,2 hPa 0,0 l/m 0 min 0 min 41 W/m 2,3 km/h (1 Bft) 95,83 %
17.06.2018 20:24 18,6 C 17,2 C 17,2 C 66 % 1017,2 hPa 0,0 l/m 0 min 0 min 44 W/m 4,5 km/h (1 Bft) 97,87 %
17.06.2018 20:26 18,5 C 17,2 C 17,2 C 66 % 1017,2 hPa 0,0 l/m 0 min 0 min 44 W/m 4,5 km/h (1 Bft) 97,87 %
17.06.2018 20:28 18,4 C 17,2 C 17,2 C 67 % 1017,2 hPa 0,0 l/m 0 min 0 min 45 W/m 11,3 km/h (2 Bft) 97,83 %
17.06.2018 20:30 18,4 C 17,2 C 17,2 C 67 % 1017,2 hPa 0,0 l/m 0 min 0 min 46 W/m 2,3 km/h (1 Bft) 95,74 %
17.06.2018 20:32 18,4 C 17,2 C 17,2 C 67 % 1017,2 hPa 0,0 l/m 0 min 0 min 42 W/m 4,5 km/h (1 Bft) 97,87 %
17.06.2018 20:34 18,3 C 17,2 C 17,2 C 67 % 1017,2 hPa 0,0 l/m 0 min 0 min 40 W/m 4,5 km/h (1 Bft) 95,74 %
17.06.2018 20:36 18,3 C 17,2 C 17,2 C 67 % 1017,2 hPa 0,0 l/m 0 min 0 min 42 W/m 2,3 km/h (1 Bft) 95,74 %
17.06.2018 20:38 18,3 C 17,2 C 16,7 C 68 % 1017,1 hPa 0,0 l/m 0 min 0 min 41 W/m 2,3 km/h (1 Bft) 97,83 %
17.06.2018 20:40 18,3 C 17,2 C 16,7 C 68 % 1017,2 hPa 0,0 l/m 0 min 0 min 39 W/m 2,3 km/h (1 Bft) 98,04 %
17.06.2018 20:42 18,2 C 17,2 C 16,7 C 68 % 1017,1 hPa 0,0 l/m 0 min 0 min 39 W/m 2,3 km/h (1 Bft) 97,87 %
17.06.2018 20:44 18,2 C 17,2 C 16,7 C 68 % 1017,1 hPa 0,0 l/m 0 min 0 min 38 W/m 2,3 km/h (1 Bft) 97,87 %
17.06.2018 20:46 18,2 C 17,2 C 16,7 C 68 % 1017,1 hPa 0,0 l/m 0 min 0 min 35 W/m 2,3 km/h (1 Bft) 97,83 %
17.06.2018 20:48 18,1 C 17,2 C 16,7 C 68 % 1017,2 hPa 0,0 l/m 0 min 0 min 34 W/m 9,0 km/h (2 Bft) 97,87 %
17.06.2018 20:50 18,1 C 17,2 C 16,7 C 69 % 1017,2 hPa 0,0 l/m 0 min 0 min 33 W/m 4,5 km/h (1 Bft) 100,00 %
17.06.2018 20:52 18,1 C 17,2 C 16,7 C 69 % 1017,2 hPa 0,0 l/m 0 min 0 min 31 W/m 2,3 km/h (1 Bft) 100,00 %
17.06.2018 20:54 18,1 C 17,2 C 16,7 C 69 % 1017,2 hPa 0,0 l/m 0 min 0 min 29 W/m 4,5 km/h (1 Bft) 97,87 %
17.06.2018 20:56 18,1 C 17,2 C 16,7 C 69 % 1017,2 hPa 0,0 l/m 0 min 0 min 26 W/m 2,3 km/h (1 Bft) 97,87 %
17.06.2018 20:58 18,0 C 17,2 C 16,7 C 69 % 1017,2 hPa 0,0 l/m 0 min 0 min 25 W/m 2,3 km/h (1 Bft) 95,65 %
17.06.2018 21:00 18,0 C 17,2 C 16,7 C 69 % 1017,1 hPa 0,0 l/m 0 min 0 min 23 W/m 2,3 km/h (1 Bft) 97,87 %
17.06.2018 21:02 18,0 C 17,2 C 16,7 C 69 % 1017,1 hPa 0,0 l/m 0 min 0 min 21 W/m 0,0 km/h (0 Bft) 97,87 %
17.06.2018 21:04 17,9 C 17,2 C 16,7 C 69 % 1017,2 hPa 0,0 l/m 0 min 0 min 19 W/m 4,5 km/h (1 Bft) 95,74 %
17.06.2018 21:06 17,9 C 17,2 C 16,7 C 69 % 1017,3 hPa 0,0 l/m 0 min 0 min 15 W/m 4,5 km/h (1 Bft) 95,74 %
17.06.2018 21:08 17,9 C 17,2 C 16,7 C 69 % 1017,3 hPa 0,0 l/m 0 min 0 min 13 W/m 2,3 km/h (1 Bft) 95,74 %
17.06.2018 21:10 17,9 C 17,2 C 16,7 C 68 % 1017,2 hPa 0,0 l/m 0 min 0 min 12 W/m 2,3 km/h (1 Bft) 95,65 %
17.06.2018 21:12 17,8 C 17,2 C 16,7 C 68 % 1017,2 hPa 0,0 l/m 0 min 0 min 11 W/m 4,5 km/h (1 Bft) 95,74 %
17.06.2018 21:14 17,8 C 16,7 C 16,7 C 68 % 1017,2 hPa 0,0 l/m 0 min 0 min 10 W/m 2,3 km/h (1 Bft) 95,74 %
17.06.2018 21:16 17,8 C 16,7 C 16,7 C 68 % 1017,2 hPa 0,0 l/m 0 min 0 min 8 W/m 6,8 km/h (2 Bft) 95,74 %
17.06.2018 21:18 17,8 C 16,7 C 16,7 C 68 % 1017,3 hPa 0,0 l/m 0 min 0 min 7 W/m 4,5 km/h (1 Bft) 95,74 %
17.06.2018 21:20 17,8 C 16,7 C 16,7 C 68 % 1017,3 hPa 0,0 l/m 0 min 0 min 6 W/m 4,5 km/h (1 Bft) 95,74 %
17.06.2018 21:22 17,7 C 16,7 C 16,7 C 68 % 1017,2 hPa 0,0 l/m 0 min 0 min 5 W/m 2,3 km/h (1 Bft) 91,30 %
17.06.2018 21:24 17,7 C 16,7 C 16,7 C 68 % 1017,3 hPa 0,0 l/m 0 min 0 min 5 W/m 2,3 km/h (1 Bft) 91,49 %
17.06.2018 21:26 17,7 C 16,7 C 16,7 C 69 % 1017,3 hPa 0,0 l/m 0 min 0 min 5 W/m 2,3 km/h (1 Bft) 93,62 %
17.06.2018 21:28 17,7 C 16,7 C 16,1 C 69 % 1017,3 hPa 0,0 l/m 0 min 0 min 5 W/m 6,8 km/h (2 Bft) 95,74 %
17.06.2018 21:30 17,7 C 16,7 C 16,1 C 70 % 1017,2 hPa 0,0 l/m 0 min 0 min 4 W/m 9,0 km/h (2 Bft) 93,62 %
17.06.2018 21:32 17,7 C 16,7 C 16,1 C 71 % 1017,3 hPa 0,0 l/m 0 min 0 min 0 W/m 2,3 km/h (1 Bft) 93,62 %
17.06.2018 21:34 17,7 C 16,7 C 16,1 C 71 % 1017,3 hPa 0,0 l/m 0 min 0 min 0 W/m 4,5 km/h (1 Bft) 95,65 %
17.06.2018 21:36 17,6 C 16,1 C 16,1 C 72 % 1017,3 hPa 0,0 l/m 0 min 0 min 0 W/m 4,5 km/h (1 Bft) 95,74 %
17.06.2018 21:38 17,6 C 16,1 C 16,1 C 72 % 1017,4 hPa 0,0 l/m 0 min 0 min 0 W/m 4,5 km/h (1 Bft) 93,62 %
17.06.2018 21:40 17,6 C 16,1 C 16,1 C 72 % 1017,5 hPa 0,0 l/m 0 min 0 min 0 W/m 6,8 km/h (2 Bft) 93,62 %
17.06.2018 21:42 17,5 C 16,1 C 15,6 C 73 % 1017,5 hPa 0,0 l/m 0 min 0 min 0 W/m 4,5 km/h (1 Bft) 93,62 %
17.06.2018 21:44 17,4 C 16,1 C 15,6 C 73 % 1017,5 hPa 0,0 l/m 0 min 0 min 0 W/m 4,5 km/h (1 Bft) 97,83 %
17.06.2018 21:46 17,4 C 16,1 C 15,6 C 73 % 1017,5 hPa 0,0 l/m 0 min 0 min 0 W/m 4,5 km/h (1 Bft) 95,74 %
17.06.2018 21:48 17,4 C 16,1 C 15,6 C 74 % 1017,5 hPa 0,0 l/m 0 min 0 min 0 W/m 0,0 km/h (0 Bft) 95,74 %
17.06.2018 21:50 17,3 C 16,1 C 15,6 C 74 % 1017,5 hPa 0,0 l/m 0 min 0 min 0 W/m 0,0 km/h (0 Bft) 95,74 %
17.06.2018 21:52 17,3 C 16,1 C 15,6 C 74 % 1017,5 hPa 0,0 l/m 0 min 0 min 0 W/m 0,0 km/h (0 Bft) 97,87 %
17.06.2018 21:54 17,3 C 16,1 C 15,6 C 74 % 1017,6 hPa 0,0 l/m 0 min 0 min 0 W/m 0,0 km/h (0 Bft) 95,74 %
17.06.2018 21:56 17,2 C 16,1 C 15,6 C 74 % 1017,6 hPa 0,0 l/m 0 min 0 min 0 W/m 0,0 km/h (0 Bft) 95,65 %
17.06.2018 21:58 17,2 C 16,1 C 15,6 C 75 % 1017,4 hPa 0,0 l/m 0 min 0 min 0 W/m 0,0 km/h (0 Bft) 93,62 %
17.06.2018 22:00 17,2 C 16,1 C 15,6 C 75 % 1017,4 hPa 0,0 l/m 0 min 0 min 0 W/m 0,0 km/h (0 Bft) 97,87 %
17.06.2018 22:02 17,2 C 16,1 C 15,6 C 75 % 1017,4 hPa 0,0 l/m 0 min 0 min 0 W/m 0,0 km/h (0 Bft) 97,87 %
17.06.2018 22:04 17,1 C 16,1 C 15,6 C 75 % 1017,5 hPa 0,0 l/m 0 min 0 min 0 W/m 0,0 km/h (0 Bft) 97,87 %
17.06.2018 22:06 17,1 C 15,6 C 15,6 C 75 % 1017,6 hPa 0,0 l/m 0 min 0 min 0 W/m 0,0 km/h (0 Bft) 97,87 %
17.06.2018 22:08 17,1 C 15,6 C 15,6 C 76 % 1017,6 hPa 0,0 l/m 0 min 0 min 0 W/m 0,0 km/h (0 Bft) 97,83 %
17.06.2018 22:10 17,1 C 15,6 C 15,6 C 76 % 1017,5 hPa 0,0 l/m 0 min 0 min 0 W/m 0,0 km/h (0 Bft) 97,87 %
17.06.2018 22:12 17,0 C 15,6 C 15,6 C 76 % 1017,6 hPa 0,0 l/m 0 min 0 min 0 W/m 0,0 km/h (0 Bft) 97,87 %
17.06.2018 22:14 17,0 C 15,6 C 15,6 C 76 % 1017,5 hPa 0,0 l/m 0 min 0 min 0 W/m 2,3 km/h (1 Bft) 100,00 %
17.06.2018 22:16 17,0 C 15,6 C 15,6 C 76 % 1017,5 hPa 0,0 l/m 0 min 0 min 0 W/m 0,0 km/h (0 Bft) 100,00 %
17.06.2018 22:18 16,9 C 15,6 C 15,6 C 76 % 1017,5 hPa 0,0 l/m 0 min 0 min 0 W/m 0,0 km/h (0 Bft) 100,00 %
17.06.2018 22:20 16,9 C 15,6 C 15,6 C 77 % 1017,5 hPa 0,0 l/m 0 min 0 min 0 W/m 0,0 km/h (0 Bft) 95,65 %
17.06.2018 22:22 16,9 C 15,6 C 15,6 C 77 % 1017,5 hPa 0,0 l/m 0 min 0 min 0 W/m 0,0 km/h (0 Bft) 97,87 %
17.06.2018 22:24 16,9 C 15,6 C 15,6 C 77 % 1017,5 hPa 0,0 l/m 0 min 0 min 0 W/m 0,0 km/h (0 Bft) 100,00 %
17.06.2018 22:26 16,8 C 15,6 C 15,6 C 77 % 1017,5 hPa 0,0 l/m 0 min 0 min 0 W/m 0,0 km/h (0 Bft) 100,00 %
17.06.2018 22:28 16,8 C 15,6 C 15,6 C 77 % 1017,6 hPa 0,0 l/m 0 min 0 min 0 W/m 0,0 km/h (0 Bft) 100,00 %
17.06.2018 22:30 16,8 C 15,6 C 15,6 C 77 % 1017,5 hPa 0,0 l/m 0 min 0 min 0 W/m 0,0 km/h (0 Bft) 97,87 %
17.06.2018 22:32 16,7 C 15,6 C 15,6 C 78 % 1017,6 hPa 0,0 l/m 0 min 0 min 0 W/m 0,0 km/h (0 Bft) 97,83 %
17.06.2018 22:34 16,7 C 15,6 C 15,6 C 78 % 1017,6 hPa 0,0 l/m 0 min 0 min 0 W/m 0,0 km/h (0 Bft) 97,87 %
17.06.2018 22:36 16,7 C 15,6 C 15,6 C 78 % 1017,6 hPa 0,0 l/m 0 min 0 min 0 W/m 0,0 km/h (0 Bft) 100,00 %
17.06.2018 22:38 16,7 C 15,6 C 15,6 C 78 % 1017,6 hPa 0,0 l/m 0 min 0 min 0 W/m 0,0 km/h (0 Bft) 95,74 %
17.06.2018 22:40 16,7 C 15,6 C 15,6 C 78 % 1017,7 hPa 0,0 l/m 0 min 0 min 0 W/m 0,0 km/h (0 Bft) 95,74 %
17.06.2018 22:42 16,6 C 15,6 C 15,6 C 78 % 1017,8 hPa 0,0 l/m 0 min 0 min 0 W/m 0,0 km/h (0 Bft) 97,87 %
17.06.2018 22:44 16,6 C 15,6 C 15,6 C 78 % 1017,6 hPa 0,0 l/m 0 min 0 min 0 W/m 0,0 km/h (0 Bft) 97,83 %
17.06.2018 22:46 16,6 C 15,6 C 15,6 C 79 % 1017,8 hPa 0,0 l/m 0 min 0 min 0 W/m 0,0 km/h (0 Bft) 100,00 %
17.06.2018 22:48 16,6 C 15,6 C 15,6 C 78 % 1017,7 hPa 0,0 l/m 0 min 0 min 0 W/m 2,3 km/h (1 Bft) 100,00 %
17.06.2018 22:50 16,5 C 15,6 C 15,6 C 78 % 1017,6 hPa 0,0 l/m 0 min 0 min 0 W/m 4,5 km/h (1 Bft) 97,87 %
17.06.2018 22:52 16,5 C 16,1 C 15,6 C 78 % 1017,7 hPa 0,0 l/m 0 min 0 min 0 W/m 4,5 km/h (1 Bft) 97,87 %
17.06.2018 22:54 16,5 C 16,1 C 15,6 C 78 % 1017,6 hPa 0,0 l/m 0 min 0 min 0 W/m 2,3 km/h (1 Bft) 97,87 %
17.06.2018 22:56 16,4 C 16,1 C 15,6 C 78 % 1017,6 hPa 0,0 l/m 0 min 0 min 0 W/m 2,3 km/h (1 Bft) 97,83 %
17.06.2018 22:58 16,4 C 16,1 C 15,6 C 78 % 1017,6 hPa 0,0 l/m 0 min 0 min 0 W/m 4,5 km/h (1 Bft) 97,87 %
17.06.2018 23:00 16,4 C 16,1 C 15,6 C 79 % 1017,6 hPa 0,0 l/m 0 min 0 min 0 W/m 4,5 km/h (1 Bft) 97,87 %
17.06.2018 23:02 16,4 C 16,1 C 15,6 C 79 % 1017,6 hPa 0,0 l/m 0 min 0 min 0 W/m 6,8 km/h (2 Bft) 97,87 %
17.06.2018 23:04 16,4 C 16,1 C 15,6 C 79 % 1017,6 hPa 0,0 l/m 0 min 0 min 0 W/m 4,5 km/h (1 Bft) 97,87 %
17.06.2018 23:06 16,4 C 15,6 C 15,6 C 79 % 1017,6 hPa 0,0 l/m 0 min 0 min 0 W/m 4,5 km/h (1 Bft) 97,14 %
17.06.2018 23:08 16,4 C 15,6 C 15,6 C 79 % 1017,6 hPa 0,0 l/m 0 min 0 min 0 W/m 2,3 km/h (1 Bft) 97,87 %
17.06.2018 23:10 16,4 C 15,6 C 15,6 C 79 % 1017,6 hPa 0,0 l/m 0 min 0 min 0 W/m 4,5 km/h (1 Bft) 97,87 %
17.06.2018 23:12 16,4 C 15,6 C 15,6 C 79 % 1017,6 hPa 0,0 l/m 0 min 0 min 0 W/m 2,3 km/h (1 Bft) 97,83 %
17.06.2018 23:14 16,4 C 15,6 C 15,6 C 79 % 1017,6 hPa 0,0 l/m 0 min 0 min 0 W/m 4,5 km/h (1 Bft) 97,87 %
17.06.2018 23:16 16,4 C 15,6 C 15,6 C 79 % 1017,6 hPa 0,0 l/m 0 min 0 min 0 W/m 2,3 km/h (1 Bft) 95,74 %
17.06.2018 23:18 16,4 C 15,6 C 15,6 C 79 % 1017,6 hPa 0,0 l/m 0 min 0 min 0 W/m 2,3 km/h (1 Bft) 97,87 %
17.06.2018 23:20 16,4 C 15,6 C 15,6 C 79 % 1017,6 hPa 0,0 l/m 0 min 0 min 0 W/m 0,0 km/h (0 Bft) 97,87 %
17.06.2018 23:22 16,4 C 15,6 C 15,6 C 79 % 1017,7 hPa 0,0 l/m 0 min 0 min 0 W/m 0,0 km/h (0 Bft) 94,23 %
17.06.2018 23:24 16,3 C 15,6 C 15,6 C 79 % 1017,7 hPa 0,0 l/m 0 min 0 min 0 W/m 0,0 km/h (0 Bft) 97,87 %
17.06.2018 23:26 16,3 C 15,6 C 15,6 C 79 % 1017,7 hPa 0,0 l/m 0 min 0 min 0 W/m 0,0 km/h (0 Bft) 97,87 %
17.06.2018 23:28 16,3 C 15,6 C 15,6 C 79 % 1017,7 hPa 0,0 l/m 0 min 0 min 0 W/m 2,3 km/h (1 Bft) 97,87 %
17.06.2018 23:30 16,3 C 15,6 C 15,6 C 79 % 1017,7 hPa 0,0 l/m 0 min 0 min 0 W/m 6,8 km/h (2 Bft) 97,87 %
17.06.2018 23:32 16,3 C 15,6 C 15,6 C 79 % 1017,7 hPa 0,0 l/m 0 min 0 min 0 W/m 2,3 km/h (1 Bft) 97,87 %
17.06.2018 23:34 16,3 C 15,6 C 15,6 C 79 % 1017,6 hPa 0,0 l/m 0 min 0 min 0 W/m 0,0 km/h (0 Bft) 97,83 %
17.06.2018 23:36 16,3 C 15,6 C 15,6 C 79 % 1017,7 hPa 0,0 l/m 0 min 0 min 0 W/m 0,0 km/h (0 Bft) 97,92 %
17.06.2018 23:38 16,3 C 15,6 C 15,6 C 79 % 1017,7 hPa 0,0 l/m 0 min 0 min 0 W/m 0,0 km/h (0 Bft) 97,83 %
17.06.2018 23:40 16,3 C 15,6 C 15,0 C 79 % 1017,7 hPa 0,0 l/m 0 min 0 min 0 W/m 0,0 km/h (0 Bft) 100,00 %
17.06.2018 23:42 16,3 C 15,6 C 15,0 C 79 % 1017,7 hPa 0,0 l/m 0 min 0 min 0 W/m 0,0 km/h (0 Bft) 97,87 %
17.06.2018 23:44 16,3 C 15,6 C 15,6 C 79 % 1017,7 hPa 0,0 l/m 0 min 0 min 0 W/m 0,0 km/h (0 Bft) 100,00 %
17.06.2018 23:46 16,3 C 15,6 C 15,6 C 80 % 1017,7 hPa 0,0 l/m 0 min 0 min 0 W/m 0,0 km/h (0 Bft) 100,00 %
17.06.2018 23:48 16,3 C 15,6 C 15,6 C 80 % 1017,7 hPa 0,0 l/m 0 min 0 min 0 W/m 0,0 km/h (0 Bft) 100,00 %
17.06.2018 23:50 16,3 C 15,6 C 15,6 C 80 % 1017,7 hPa 0,0 l/m 0 min 0 min 0 W/m 0,0 km/h (0 Bft) 97,87 %
17.06.2018 23:52 16,3 C 15,6 C 15,0 C 80 % 1017,6 hPa 0,0 l/m 0 min 0 min 0 W/m 0,0 km/h (0 Bft) 97,56 %
17.06.2018 23:54 16,3 C 15,6 C 15,0 C 80 % 1017,7 hPa 0,0 l/m 0 min 0 min 0 W/m 0,0 km/h (0 Bft) 97,87 %
17.06.2018 23:56 16,3 C 15,6 C 15,0 C 80 % 1017,6 hPa 0,0 l/m 0 min 0 min 0 W/m 0,0 km/h (0 Bft) 97,87 %
17.06.2018 23:58 16,3 C 15,6 C 15,0 C 80 % 1017,6 hPa 0,0 l/m 0 min 0 min 0 W/m 0,0 km/h (0 Bft) 97,83 %
_ Min-Zeit 03:16 00:44 00:34 16:32 00:00 - - - - 00:00 06:04
Minimum _ 14,6 C 13,9 C 13,9 C 63 % 1013,6 hPa - - - - 0,0 km/h (0 Bft) 89,36 %
_ Max-Zeit 11:40 11:22 11:22 01:08 22:42 00:00 12:08 17:06 15:10 11:40 00:14
Maximum _ 19,3 C 21,1 C 18,3 C 87 % 1017,8 hPa 0,0 l/m 4 min 2 min 736 W/m 18,0 km/h
W-SW (3 Bft)
100,00 %
Durchschnitt _ 17,2 C 17,1 C 16,2 C 75 % 1015,6 hPa #0,0 l/m #3:50 h #14 min. 243 W/m 5,3 km/h (1 Bft) 97,50 %
© 2018 W. Hausmann